Time,TemperatureF,DewpointF,PressureIn,WindDirection,WindDirectionDegrees,WindSpeedMPH,WindSpeedGustMPH,Humidity,HourlyPrecipIn,Conditions,Clouds,dailyrainin,SoftwareType,DateUTC
2013-03-10 00:01:00,38.2,35.0,29.66,WNW,302,3.0,3.0,88,0.00,RA,,0.00,WeatherDisplay:10.37,2013-03-10 00:01:00,
2013-03-10 00:02:00,38.3,35.1,29.66,NE,44,3.5,3.5,88,0.00,CLR,,0.02,WeatherDisplay:10.37,2013-03-10 00:02:00,
2013-03-10 00:03:00,38.2,35.0,29.66,NW,306,3.5,3.5,88,0.00,RA,,0.00,WeatherDisplay:10.37,2013-03-10 00:03:00,
2013-03-10 00:04:00,38.2,35.0,29.66,WNW,302,1.1,1.1,88,0.00,RA,,0.00,WeatherDisplay:10.37,2013-03-10 00:04:00,
2013-03-10 00:05:00,38.2,35.0,29.66,NW,314,3.5,3.5,88,0.00,RA,,0.00,WeatherDisplay:10.37,2013-03-10 00:05:00,
2013-03-10 00:07:00,38.3,35.1,29.66,WNW,296,3.5,3.5,88,0.00,CLR,,0.02,WeatherDisplay:10.37,2013-03-10 00:07:00,
2013-03-10 00:10:00,38.1,34.9,29.66,NW,308,0.0,0.0,88,0.00,CLR,,0.00,WeatherDisplay:10.37,2013-03-10 00:10:00,
2013-03-10 00:11:00,38.1,34.9,29.67,NW,307,0.0,0.0,88,0.00,CLR,,0.00,WeatherDisplay:10.37,2013-03-10 00:11:00,
2013-03-10 00:12:00,38.2,35.0,29.66,North,351,5.8,5.8,88,0.00,CLR,,0.02,WeatherDisplay:10.37,2013-03-10 00:12:00,
2013-03-10 00:13:00,38.1,34.6,29.67,NNE,25,2.0,2.0,87,0.00,CLR,,0.00,WeatherDisplay:10.37,2013-03-10 00:13:00,
2013-03-10 00:14:00,38.1,34.9,29.67,NW,319,2.3,2.3,88,0.00,CLR,,0.00,WeatherDisplay:10.37,2013-03-10 00:14:00,
2013-03-10 00:15:00,38.0,34.8,29.67,NE,43,1.1,1.1,88,0.00,CLR,,0.00,WeatherDisplay:10.37,2013-03-10 00:15:00,
2013-03-10 00:17:00,38.2,35.0,29.66,NNW,341,2.0,2.0,88,0.00,RA,,0.00,WeatherDisplay:10.37,2013-03-10 00:17:00,
2013-03-10 00:20:00,38.0,34.8,29.67,WNW,302,3.5,3.5,88,0.00,CLR,,0.00,WeatherDisplay:10.37,2013-03-10 00:20:00,
2013-03-10 00:21:00,38.0,34.8,29.67,NW,321,2.3,2.3,88,0.00,CLR,,0.00,WeatherDisplay:10.37,2013-03-10 00:21:00,
2013-03-10 00:22:00,38.1,34.9,29.66,ESE,113,1.1,0.0,88,0.00,RA,,0.00,WeatherDisplay:10.37,2013-03-10 00:22:00,
2013-03-10 00:23:00,38.0,34.8,29.67,ENE,72,2.3,2.3,88,0.00,CLR,,0.00,WeatherDisplay:10.37,2013-03-10 00:23:00,
2013-03-10 00:27:00,38.1,34.9,29.67,NW,323,2.3,2.3,88,0.00,CLR,,0.00,WeatherDisplay:10.37,2013-03-10 00:27:00,
2013-03-10 00:32:00,38.0,34.8,29.67,NW,323,3.5,3.5,88,0.00,CLR,,0.00,WeatherDisplay:10.37,2013-03-10 00:32:00,
2013-03-10 00:37:00,38.0,34.8,29.67,ENE,72,1.0,1.0,88,0.00,CLR,,0.00,WeatherDisplay:10.37,2013-03-10 00:37:00,
2013-03-10 00:42:00,38.0,34.8,29.67,NNW,328,4.6,4.6,88,0.00,CLR,,0.00,WeatherDisplay:10.37,2013-03-10 00:42:00,
2013-03-10 00:47:00,38.0,34.8,29.67,NNW,327,3.5,3.5,88,0.00,CLR,,0.00,WeatherDisplay:10.37,2013-03-10 00:47:00,
2013-03-10 00:50:00,37.7,34.5,29.67,NNW,330,3.5,3.5,88,0.00,CLR,,0.00,WeatherDisplay:10.37,2013-03-10 00:50:00,
2013-03-10 00:51:00,37.7,34.5,29.67,SE,145,0.0,0.0,88,0.00,CLR,,0.00,WeatherDisplay:10.37,2013-03-10 00:51:00,
2013-03-10 00:52:00,37.9,34.7,29.67,NNW,330,3.5,3.5,88,0.00,CLR,,0.00,WeatherDisplay:10.37,2013-03-10 00:52:00,
2013-03-10 00:53:00,37.7,34.5,29.67,NE,39,3.5,3.5,88,0.00,CLR,,0.00,WeatherDisplay:10.37,2013-03-10 00:53:00,
2013-03-10 00:54:00,37.7,34.5,29.67,NNW,335,3.5,3.5,88,0.00,CLR,,0.00,WeatherDisplay:10.37,2013-03-10 00:54:00,
2013-03-10 00:57:00,37.9,34.7,29.67,NNW,328,1.1,1.1,88,0.00,CLR,,0.00,WeatherDisplay:10.37,2013-03-10 00:57:00,
2013-03-10 01:00:00,37.6,34.7,29.67,NW,325,1.0,1.0,89,0.00,CLR,,0.00,WeatherDisplay:10.37,2013-03-10 01:00:00,
2013-03-10 01:01:00,37.7,34.8,29.67,NNW,329,4.6,4.6,89,0.00,CLR,,0.00,WeatherDisplay:10.37,2013-03-10 01:01:00,
2013-03-10 01:02:00,37.8,34.6,29.67,NW,325,3.5,3.5,88,0.00,CLR,,0.00,WeatherDisplay:10.37,2013-03-10 01:02:00,
2013-03-10 01:03:00,37.6,34.7,29.67,ENE,77,3.5,3.5,89,0.00,CLR,,0.00,WeatherDisplay:10.37,2013-03-10 01:03:00,
2013-03-10 01:04:00,37.6,34.4,29.67,West,281,3.5,3.5,88,0.00,CLR,,0.00,WeatherDisplay:10.37,2013-03-10 01:04:00,
2013-03-10 01:05:00,37.6,34.4,29.67,NE,56,4.0,4.0,88,0.00,CLR,,0.00,WeatherDisplay:10.37,2013-03-10 01:05:00,
2013-03-10 01:07:00,37.7,34.5,29.67,WNW,297,3.5,3.5,88,0.00,CLR,,0.00,WeatherDisplay:10.37,2013-03-10 01:07:00,
2013-03-10 01:09:00,37.4,34.2,29.67,WNW,291,1.1,1.1,88,0.00,CLR,,0.00,WeatherDisplay:10.37,2013-03-10 01:09:00,
2013-03-10 01:10:00,37.4,34.2,29.67,North,355,0.0,6.0,88,0.00,CLR,,0.00,WeatherDisplay:10.37,2013-03-10 01:10:00,
2013-03-10 01:11:00,37.4,34.2,29.67,NNW,342,4.6,4.6,88,0.00,CLR,,0.00,WeatherDisplay:10.37,2013-03-10 01:11:00,
2013-03-10 01:12:00,37.6,34.7,29.67,WNW,291,3.5,3.5,89,0.00,CLR,,0.00,WeatherDisplay:10.37,2013-03-10 01:12:00,
2013-03-10 01:13:00,37.4,34.2,29.67,NW,315,4.6,4.6,88,0.00,CLR,,0.00,WeatherDisplay:10.37,2013-03-10 01:13:00,
2013-03-10 01:14:00,37.4,34.2,29.67,North,5,3.5,3.5,88,0.00,CLR,,0.00,WeatherDisplay:10.37,2013-03-10 01:14:00,
2013-03-10 01:15:00,37.3,34.1,29.67,NE,51,3.5,3.5,88,0.00,CLR,,0.00,WeatherDisplay:10.37,2013-03-10 01:15:00,
2013-03-10 01:17:00,37.6,34.4,29.67,NNW,335,3.5,3.5,88,0.00,CLR,,0.00,WeatherDisplay:10.37,2013-03-10 01:17:00,
2013-03-10 01:20:00,37.3,34.1,29.67,North,5,0.0,5.0,88,0.00,CLR,,0.00,WeatherDisplay:10.37,2013-03-10 01:20:00,
2013-03-10 01:21:00,37.4,34.2,29.67,NW,322,3.5,3.5,88,0.00,CLR,,0.00,WeatherDisplay:10.37,2013-03-10 01:21:00,
2013-03-10 01:22:00,37.4,34.2,29.67,NW,326,3.0,3.0,88,0.00,CLR,,0.00,WeatherDisplay:10.37,2013-03-10 01:22:00,
2013-03-10 01:23:00,37.3,34.1,29.67,East,87,3.5,3.5,88,0.00,CLR,,0.00,WeatherDisplay:10.37,2013-03-10 01:23:00,
2013-03-10 01:24:00,37.3,34.1,29.67,East,80,3.5,3.5,88,0.00,CLR,,0.00,WeatherDisplay:10.37,2013-03-10 01:24:00,
2013-03-10 01:27:00,37.4,34.2,29.67,NE,51,3.5,3.5,88,0.00,CLR,,0.00,WeatherDisplay:10.37,2013-03-10 01:27:00,
2013-03-10 01:30:00,37.3,34.1,29.67,North,8,2.0,4.0,88,0.00,CLR,,0.00,WeatherDisplay:10.37,2013-03-10 01:30:00,
2013-03-10 01:31:00,37.3,34.1,29.67,NNW,344,3.5,3.5,88,0.00,CLR,,0.00,WeatherDisplay:10.37,2013-03-10 01:31:00,
2013-03-10 01:32:00,37.3,34.1,29.67,NNW,348,3.5,3.5,88,0.00,CLR,,0.00,WeatherDisplay:10.37,2013-03-10 01:32:00,
2013-03-10 01:33:00,37.3,34.1,29.67,NW,325,0.0,0.0,88,0.00,CLR,,0.00,WeatherDisplay:10.37,2013-03-10 01:33:00,
2013-03-10 01:37:00,37.3,34.1,29.67,North,5,3.5,3.5,88,0.00,CLR,,0.00,WeatherDisplay:10.37,2013-03-10 01:37:00,
2013-03-10 01:42:00,37.3,34.1,29.67,ENE,75,3.5,3.5,88,0.00,CLR,,0.00,WeatherDisplay:10.37,2013-03-10 01:42:00,
2013-03-10 01:47:00,37.3,34.1,29.67,North,359,3.5,3.5,88,0.00,CLR,,0.00,WeatherDisplay:10.37,2013-03-10 01:47:00,
2013-03-10 01:52:00,37.3,34.1,29.67,ESE,105,4.6,4.6,88,0.00,CLR,,0.00,WeatherDisplay:10.37,2013-03-10 01:52:00,
2013-03-10 01:57:00,37.3,34.1,29.67,NE,53,3.5,3.5,88,0.00,CLR,,0.00,WeatherDisplay:10.37,2013-03-10 01:57:00,
2013-03-10 02:02:00,37.3,34.1,29.67,NE,40,4.6,4.6,88,0.00,CLR,,0.00,WeatherDisplay:10.37,2013-03-10 02:02:00,
2013-03-10 02:07:00,37.3,34.1,29.67,ENE,77,3.5,3.5,88,0.00,CLR,,0.00,WeatherDisplay:10.37,2013-03-10 02:07:00,
2013-03-10 02:12:00,37.2,34.0,29.67,NNE,16,1.1,1.1,88,0.00,CLR,,0.00,WeatherDisplay:10.37,2013-03-10 02:12:00,
2013-03-10 02:17:00,37.2,34.0,29.66,North,350,3.5,3.5,88,0.00,CLR,,0.00,WeatherDisplay:10.37,2013-03-10 02:17:00,
2013-03-10 02:20:00,37.1,34.2,29.66,NNW,335,2.3,2.3,89,0.00,CLR,,0.00,WeatherDisplay:10.37,2013-03-10 02:20:00,
2013-03-10 02:21:00,37.1,34.2,29.66,NW,325,3.5,3.5,89,0.00,CLR,,0.00,WeatherDisplay:10.37,2013-03-10 02:21:00,
2013-03-10 02:22:00,37.1,33.9,29.66,NNW,335,2.3,2.3,88,0.00,CLR,,0.00,WeatherDisplay:10.37,2013-03-10 02:22:00,
2013-03-10 02:23:00,37.1,34.2,29.66,North,11,3.5,3.5,89,0.00,CLR,,0.00,WeatherDisplay:10.37,2013-03-10 02:23:00,
2013-03-10 02:27:00,37.1,34.2,29.66,ENE,68,4.6,4.6,89,0.00,CLR,,0.00,WeatherDisplay:10.37,2013-03-10 02:27:00,
2013-03-10 02:29:00,37.0,34.1,29.66,ESE,120,3.5,3.5,89,0.00,CLR,,0.00,WeatherDisplay:10.37,2013-03-10 02:29:00,
2013-03-10 02:30:00,37.0,34.1,29.66,ESE,120,4.6,4.6,89,0.00,CLR,,0.00,WeatherDisplay:10.37,2013-03-10 02:30:00,
2013-03-10 02:31:00,37.0,34.1,29.66,East,98,4.6,0.0,89,0.00,CLR,,0.00,WeatherDisplay:10.37,2013-03-10 02:31:00,
2013-03-10 02:32:00,37.1,34.2,29.66,NW,316,0.0,0.4,89,0.00,CLR,,0.00,WeatherDisplay:10.37,2013-03-10 02:32:00,
2013-03-10 02:33:00,37.0,34.1,29.66,ESE,104,3.5,3.5,89,0.00,CLR,,0.00,WeatherDisplay:10.37,2013-03-10 02:33:00,
2013-03-10 02:34:00,36.9,34.0,29.66,East,96,3.5,3.5,89,0.00,CLR,,0.00,WeatherDisplay:10.37,2013-03-10 02:34:00,
2013-03-10 02:37:00,37.0,34.1,29.66,ESE,113,3.5,3.5,89,0.00,CLR,,0.00,WeatherDisplay:10.37,2013-03-10 02:37:00,
2013-03-10 02:42:00,37.0,34.1,29.66,ESE,119,3.5,3.5,89,0.00,CLR,,0.00,WeatherDisplay:10.37,2013-03-10 02:42:00,
2013-03-10 02:47:00,37.0,34.1,29.66,SSE,153,3.5,0.0,89,0.00,CLR,,0.00,WeatherDisplay:10.37,2013-03-10 02:47:00,
2013-03-10 02:49:00,36.9,34.2,29.66,ENE,70,0.0,0.0,90,0.00,CLR,,0.00,WeatherDisplay:10.37,2013-03-10 02:49:00,
2013-03-10 02:50:00,36.9,34.2,29.66,ENE,70,0.0,0.0,90,0.00,CLR,,0.00,WeatherDisplay:10.37,2013-03-10 02:50:00,
2013-03-10 02:51:00,36.9,34.2,29.66,ENE,68,0.0,0.0,90,0.00,CLR,,0.00,WeatherDisplay:10.37,2013-03-10 02:51:00,
2013-03-10 02:52:00,36.9,34.0,29.66,NNW,335,3.5,3.5,89,0.00,CLR,,0.00,WeatherDisplay:10.37,2013-03-10 02:52:00,
2013-03-10 02:53:00,36.9,34.2,29.66,NNW,337,1.1,1.1,90,0.00,CLR,,0.00,WeatherDisplay:10.37,2013-03-10 02:53:00,
2013-03-10 02:54:00,36.9,34.2,29.66,NNE,32,1.1,0.0,90,0.00,CLR,,0.00,WeatherDisplay:10.37,2013-03-10 02:54:00,
2013-03-10 02:57:00,36.9,34.0,29.66,NNW,332,3.5,3.5,89,0.00,CLR,,0.00,WeatherDisplay:10.37,2013-03-10 02:57:00,
2013-03-10 03:02:00,36.9,34.2,29.66,ENE,68,0.0,0.0,90,0.00,CLR,,0.00,WeatherDisplay:10.37,2013-03-10 03:02:00,
2013-03-10 03:07:00,36.9,34.2,29.66,NE,36,1.1,0.0,90,0.00,CLR,,0.00,WeatherDisplay:10.37,2013-03-10 03:07:00,
2013-03-10 03:10:00,36.9,34.2,29.66,ENE,58,2.3,2.3,90,0.00,CLR,,0.00,WeatherDisplay:10.37,2013-03-10 03:10:00,
2013-03-10 03:11:00,36.9,34.2,29.66,ENE,58,2.3,2.3,90,0.00,CLR,,0.00,WeatherDisplay:10.37,2013-03-10 03:11:00,
2013-03-10 03:12:00,36.9,34.2,29.66,NNW,335,2.3,2.3,90,0.00,CLR,,0.00,WeatherDisplay:10.37,2013-03-10 03:12:00,
2013-03-10 03:13:00,37.0,34.3,29.66,ENE,77,3.5,3.5,90,0.00,CLR,,0.00,WeatherDisplay:10.37,2013-03-10 03:13:00,
2013-03-10 03:14:00,37.0,34.3,29.66,East,95,3.5,3.5,90,0.00,CLR,,0.00,WeatherDisplay:10.37,2013-03-10 03:14:00,
2013-03-10 03:15:00,37.0,34.3,29.66,East,92,1.1,1.1,90,0.00,CLR,,0.00,WeatherDisplay:10.37,2013-03-10 03:15:00,
2013-03-10 03:17:00,36.9,34.2,29.66,North,350,0.0,1.8,90,0.00,CLR,,0.00,WeatherDisplay:10.37,2013-03-10 03:17:00,
2013-03-10 03:22:00,36.9,34.2,29.66,NW,315,1.1,1.1,90,0.00,CLR,,0.00,WeatherDisplay:10.37,2013-03-10 03:22:00,
2013-03-10 03:27:00,37.0,34.3,29.66,East,96,3.5,0.0,90,0.00,CLR,,0.00,WeatherDisplay:10.37,2013-03-10 03:27:00,
2013-03-10 03:30:00,36.9,34.0,29.66,ESE,113,1.1,1.1,89,0.00,CLR,,0.00,WeatherDisplay:10.37,2013-03-10 03:30:00,
2013-03-10 03:31:00,36.9,34.2,29.66,ESE,103,3.5,3.5,90,0.00,CLR,,0.00,WeatherDisplay:10.37,2013-03-10 03:31:00,
2013-03-10 03:32:00,37.0,34.1,29.66,NNE,28,3.5,3.5,89,0.00,CLR,,0.00,WeatherDisplay:10.37,2013-03-10 03:32:00,
2013-03-10 03:33:00,36.9,34.0,29.66,NNE,18,3.5,3.5,89,0.00,CLR,,0.00,WeatherDisplay:10.37,2013-03-10 03:33:00,
2013-03-10 03:37:00,36.9,34.0,29.66,NNW,342,3.5,3.5,89,0.00,CLR,,0.00,WeatherDisplay:10.37,2013-03-10 03:37:00,
2013-03-10 03:40:00,36.9,34.0,29.66,West,259,3.5,3.5,89,0.00,CLR,,0.00,WeatherDisplay:10.37,2013-03-10 03:40:00,
2013-03-10 03:41:00,36.9,34.0,29.66,ESE,123,1.1,0.0,89,0.00,CLR,,0.00,WeatherDisplay:10.37,2013-03-10 03:41:00,
2013-03-10 03:42:00,36.9,34.0,29.66,ESE,113,1.1,1.1,89,0.00,CLR,,0.00,WeatherDisplay:10.37,2013-03-10 03:42:00,
2013-03-10 03:43:00,36.9,34.0,29.66,WNW,295,5.8,5.8,89,0.00,CLR,,0.00,WeatherDisplay:10.37,2013-03-10 03:43:00,
2013-03-10 03:44:00,36.9,34.0,29.66,NE,43,1.1,0.0,89,0.00,CLR,,0.00,WeatherDisplay:10.37,2013-03-10 03:44:00,
2013-03-10 03:47:00,36.9,34.0,29.66,SW,215,3.5,3.5,89,0.00,CLR,,0.00,WeatherDisplay:10.37,2013-03-10 03:47:00,
2013-03-10 03:52:00,36.9,34.0,29.66,ENE,58,2.3,2.3,89,0.00,CLR,,0.00,WeatherDisplay:10.37,2013-03-10 03:52:00,
2013-03-10 03:57:00,36.9,34.0,29.66,NE,41,1.1,0.0,89,0.00,CLR,,0.00,WeatherDisplay:10.37,2013-03-10 03:57:00,
2013-03-10 04:01:00,36.9,34.2,29.66,NNE,32,0.0,0.0,90,0.00,CLR,,0.00,WeatherDisplay:10.37,2013-03-10 04:01:00,
2013-03-10 04:02:00,36.9,34.2,29.66,NW,309,3.5,0.0,90,0.00,CLR,,0.00,WeatherDisplay:10.37,2013-03-10 04:02:00,
2013-03-10 04:03:00,36.9,34.2,29.66,NW,323,4.6,4.6,90,0.00,CLR,,0.00,WeatherDisplay:10.37,2013-03-10 04:03:00,
2013-03-10 04:04:00,36.9,34.2,29.66,NW,325,3.5,3.5,90,0.00,CLR,,0.00,WeatherDisplay:10.37,2013-03-10 04:04:00,
2013-03-10 04:05:00,36.9,34.2,29.66,East,88,0.0,0.0,90,0.00,CLR,,0.00,WeatherDisplay:10.37,2013-03-10 04:05:00,
2013-03-10 04:06:00,36.9,34.2,29.66,NNE,26,0.0,0.0,90,0.00,CLR,,0.00,WeatherDisplay:10.37,2013-03-10 04:06:00,
2013-03-10 04:07:00,36.9,34.2,29.66,ESE,116,1.1,0.0,90,0.00,CLR,,0.00,WeatherDisplay:10.37,2013-03-10 04:07:00,
2013-03-10 04:10:00,36.9,34.2,29.66,NNE,22,0.0,2.0,90,0.00,CLR,,0.00,WeatherDisplay:10.37,2013-03-10 04:10:00,
2013-03-10 04:11:00,36.9,34.2,29.66,NNE,16,0.0,0.0,90,0.00,CLR,,0.00,WeatherDisplay:10.37,2013-03-10 04:11:00,
2013-03-10 04:12:00,36.9,34.2,29.66,NNE,33,1.1,0.0,90,0.00,CLR,,0.00,WeatherDisplay:10.37,2013-03-10 04:12:00,
2013-03-10 04:13:00,36.9,34.2,29.65,West,280,1.1,1.1,90,0.00,CLR,,0.00,WeatherDisplay:10.37,2013-03-10 04:13:00,
2013-03-10 04:14:00,36.9,34.2,29.65,North,358,3.5,3.5,90,0.00,CLR,,0.00,WeatherDisplay:10.37,2013-03-10 04:14:00,
2013-03-10 04:17:00,36.9,34.2,29.66,East,88,3.5,0.0,90,0.00,CLR,,0.00,WeatherDisplay:10.37,2013-03-10 04:17:00,
2013-03-10 04:22:00,36.9,34.2,29.66,NE,36,2.3,0.0,90,0.00,CLR,,0.00,WeatherDisplay:10.37,2013-03-10 04:22:00,
2013-03-10 04:27:00,36.9,34.2,29.66,NNE,15,3.5,0.0,90,0.00,CLR,,0.00,WeatherDisplay:10.37,2013-03-10 04:27:00,
2013-03-10 04:32:00,36.8,34.1,29.66,ESE,105,0.0,0.2,90,0.00,CLR,,0.00,WeatherDisplay:10.37,2013-03-10 04:32:00,
2013-03-10 04:37:00,36.8,34.1,29.66,NW,325,4.0,4.0,90,0.00,CLR,,0.00,WeatherDisplay:10.37,2013-03-10 04:37:00,
2013-03-10 04:40:00,36.8,34.1,29.66,NW,323,1.1,1.1,90,0.00,CLR,,0.00,WeatherDisplay:10.37,2013-03-10 04:40:00,
2013-03-10 04:41:00,36.8,34.1,29.66,ESE,111,1.1,1.1,90,0.00,CLR,,0.00,WeatherDisplay:10.37,2013-03-10 04:41:00,
2013-03-10 04:42:00,36.8,34.1,29.65,NW,304,1.0,1.0,90,0.00,CLR,,0.00,WeatherDisplay:10.37,2013-03-10 04:42:00,
2013-03-10 04:43:00,36.8,34.1,29.66,NW,316,0.0,0.0,90,0.00,CLR,,0.00,WeatherDisplay:10.37,2013-03-10 04:43:00,
2013-03-10 04:44:00,36.8,34.1,29.66,NNW,342,0.0,0.0,90,0.00,CLR,,0.00,WeatherDisplay:10.37,2013-03-10 04:44:00,
2013-03-10 04:47:00,36.8,34.1,29.66,NNW,333,4.0,4.0,90,0.00,CLR,,0.00,WeatherDisplay:10.37,2013-03-10 04:47:00,
2013-03-10 04:48:00,36.8,34.1,29.66,NW,316,5.8,5.8,90,0.00,CLR,,0.00,WeatherDisplay:10.37,2013-03-10 04:48:00,
2013-03-10 04:49:00,36.8,34.1,29.66,ENE,77,2.3,2.3,90,0.00,CLR,,0.00,WeatherDisplay:10.37,2013-03-10 04:49:00,
2013-03-10 04:50:00,36.8,34.1,29.66,North,356,0.0,4.0,90,0.00,CLR,,0.00,WeatherDisplay:10.37,2013-03-10 04:50:00,
2013-03-10 04:51:00,36.8,34.1,29.66,NE,56,3.5,3.5,90,0.00,CLR,,0.00,WeatherDisplay:10.37,2013-03-10 04:51:00,
2013-03-10 04:52:00,36.8,34.1,29.66,NNW,337,2.3,2.3,90,0.00,CLR,,0.00,WeatherDisplay:10.37,2013-03-10 04:52:00,
2013-03-10 04:53:00,36.8,34.1,29.66,ESE,111,1.1,1.1,90,0.00,CLR,,0.00,WeatherDisplay:10.37,2013-03-10 04:53:00,
2013-03-10 04:58:00,36.8,34.1,29.66,NNW,343,2.0,2.0,90,0.00,CLR,,0.00,WeatherDisplay:10.37,2013-03-10 04:58:00,
2013-03-10 05:02:00,36.8,34.1,29.66,South,169,2.3,0.0,90,0.00,CLR,,0.00,WeatherDisplay:10.37,2013-03-10 05:02:00,
2013-03-10 05:07:00,36.8,34.1,29.66,ENE,58,1.1,0.0,90,0.00,CLR,,0.00,WeatherDisplay:10.37,2013-03-10 05:07:00,
2013-03-10 05:09:00,36.7,34.0,29.66,NW,305,2.3,2.3,90,0.00,CLR,,0.00,WeatherDisplay:10.37,2013-03-10 05:09:00,
2013-03-10 05:10:00,36.7,34.0,29.66,WNW,302,0.0,2.0,90,0.00,CLR,,0.00,WeatherDisplay:10.37,2013-03-10 05:10:00,
2013-03-10 05:11:00,36.7,34.0,29.66,East,81,1.1,0.0,90,0.00,CLR,,0.00,WeatherDisplay:10.37,2013-03-10 05:11:00,
2013-03-10 05:12:00,36.7,34.0,29.66,NNW,331,2.3,2.3,90,0.00,CLR,,0.00,WeatherDisplay:10.37,2013-03-10 05:12:00,
2013-03-10 05:13:00,36.7,34.0,29.66,NNE,15,3.5,3.5,90,0.00,CLR,,0.00,WeatherDisplay:10.37,2013-03-10 05:13:00,
2013-03-10 05:14:00,36.7,34.0,29.66,NW,304,3.5,3.5,90,0.00,CLR,,0.00,WeatherDisplay:10.37,2013-03-10 05:14:00,
2013-03-10 05:15:00,36.7,34.0,29.66,NE,36,1.1,0.0,90,0.00,CLR,,0.00,WeatherDisplay:10.37,2013-03-10 05:15:00,
2013-03-10 05:16:00,36.7,34.0,29.66,SSE,148,1.1,0.0,90,0.00,CLR,,0.00,WeatherDisplay:10.37,2013-03-10 05:16:00,
2013-03-10 05:17:00,36.7,34.0,29.66,SE,133,0.0,0.0,90,0.00,CLR,,0.00,WeatherDisplay:10.37,2013-03-10 05:17:00,
2013-03-10 05:19:00,36.7,34.0,29.66,NNW,335,0.0,1.6,90,0.00,CLR,,0.00,WeatherDisplay:10.37,2013-03-10 05:19:00,
2013-03-10 05:20:00,36.7,34.0,29.66,North,352,1.0,3.0,90,0.00,CLR,,0.00,WeatherDisplay:10.37,2013-03-10 05:20:00,
2013-03-10 05:21:00,36.7,34.0,29.66,NNE,20,2.3,2.3,90,0.00,CLR,,0.00,WeatherDisplay:10.37,2013-03-10 05:21:00,
2013-03-10 05:22:00,36.7,34.0,29.66,NW,305,2.3,2.3,90,0.00,CLR,,0.00,WeatherDisplay:10.37,2013-03-10 05:22:00,
2013-03-10 05:23:00,36.7,34.0,29.66,WNW,291,1.1,1.1,90,0.00,CLR,,0.00,WeatherDisplay:10.37,2013-03-10 05:23:00,
2013-03-10 05:24:00,36.7,34.0,29.66,NNW,330,3.5,3.5,90,0.00,CLR,,0.00,WeatherDisplay:10.37,2013-03-10 05:24:00,
2013-03-10 05:25:00,36.7,34.0,29.66,WNW,302,3.5,3.5,90,0.00,CLR,,0.00,WeatherDisplay:10.37,2013-03-10 05:25:00,
2013-03-10 05:27:00,36.7,34.0,29.66,NE,36,1.1,0.0,90,0.00,CLR,,0.00,WeatherDisplay:10.37,2013-03-10 05:27:00,
2013-03-10 05:30:00,36.7,34.0,29.66,NNW,340,0.0,2.0,90,0.00,CLR,,0.00,WeatherDisplay:10.37,2013-03-10 05:30:00,
2013-03-10 05:31:00,36.7,34.0,29.66,NE,36,2.3,2.3,90,0.00,CLR,,0.00,WeatherDisplay:10.37,2013-03-10 05:31:00,
2013-03-10 05:32:00,36.7,34.0,29.66,NNW,335,0.0,1.6,90,0.00,CLR,,0.00,WeatherDisplay:10.37,2013-03-10 05:32:00,
2013-03-10 05:33:00,36.7,34.0,29.66,WSW,257,1.1,1.1,90,0.00,CLR,,0.00,WeatherDisplay:10.37,2013-03-10 05:33:00,
2013-03-10 05:34:00,36.7,34.0,29.66,WSW,257,1.1,0.0,90,0.00,CLR,,0.00,WeatherDisplay:10.37,2013-03-10 05:34:00,
2013-03-10 05:35:00,36.7,34.0,29.66,NNW,347,0.0,3.0,90,0.00,CLR,,0.00,WeatherDisplay:10.37,2013-03-10 05:35:00,
2013-03-10 05:37:00,36.7,34.0,29.66,WNW,302,3.5,3.5,90,0.00,CLR,,0.00,WeatherDisplay:10.37,2013-03-10 05:37:00,
2013-03-10 05:42:00,36.7,34.0,29.66,WNW,285,2.3,2.3,90,0.00,CLR,,0.00,WeatherDisplay:10.37,2013-03-10 05:42:00,
2013-03-10 05:48:00,36.7,34.0,29.66,NW,311,3.5,3.5,90,0.00,CLR,,0.00,WeatherDisplay:10.37,2013-03-10 05:48:00,
2013-03-10 05:50:00,36.7,34.0,29.66,NNW,345,2.3,2.3,90,0.00,CLR,,0.00,WeatherDisplay:10.37,2013-03-10 05:50:00,
2013-03-10 05:51:00,36.7,34.0,29.66,NNW,330,2.3,2.3,90,0.00,CLR,,0.00,WeatherDisplay:10.37,2013-03-10 05:51:00,
2013-03-10 05:52:00,36.7,34.0,29.66,West,265,1.1,1.1,90,0.00,CLR,,0.00,WeatherDisplay:10.37,2013-03-10 05:52:00,
2013-03-10 05:53:00,36.7,34.0,29.66,ENE,68,3.5,3.5,90,0.00,CLR,,0.00,WeatherDisplay:10.37,2013-03-10 05:53:00,
2013-03-10 05:54:00,36.7,34.0,29.66,East,79,1.1,1.1,90,0.00,CLR,,0.00,WeatherDisplay:10.37,2013-03-10 05:54:00,
2013-03-10 05:55:00,36.7,34.0,29.66,NW,325,3.5,3.5,90,0.00,CLR,,0.00,WeatherDisplay:10.37,2013-03-10 05:55:00,
2013-03-10 05:56:00,36.7,34.0,29.66,ESE,120,3.5,3.5,90,0.00,CLR,,0.00,WeatherDisplay:10.37,2013-03-10 05:56:00,
2013-03-10 05:58:00,36.7,34.0,29.66,NNE,18,1.0,0.0,90,0.00,CLR,,0.00,WeatherDisplay:10.37,2013-03-10 05:58:00,
2013-03-10 06:03:00,36.7,34.0,29.66,SSW,211,5.8,5.8,90,0.00,CLR,,0.00,WeatherDisplay:10.37,2013-03-10 06:03:00,
2013-03-10 06:08:00,36.7,34.0,29.66,WNW,300,4.0,4.0,90,0.00,CLR,,0.00,WeatherDisplay:10.37,2013-03-10 06:08:00,
2013-03-10 06:09:00,36.7,34.0,29.67,East,92,2.3,0.0,90,0.00,CLR,,0.00,WeatherDisplay:10.37,2013-03-10 06:09:00,
2013-03-10 06:10:00,36.7,33.8,29.67,West,263,0.0,0.0,89,0.00,CLR,,0.00,WeatherDisplay:10.37,2013-03-10 06:10:00,
2013-03-10 06:11:00,36.7,33.8,29.67,ESE,123,2.3,2.3,89,0.00,CLR,,0.00,WeatherDisplay:10.37,2013-03-10 06:11:00,
2013-03-10 06:12:00,36.7,33.8,29.67,SSE,155,3.5,3.5,89,0.00,CLR,,0.00,WeatherDisplay:10.37,2013-03-10 06:12:00,
2013-03-10 06:13:00,36.7,34.0,29.66,West,271,2.3,2.3,90,0.00,CLR,,0.00,WeatherDisplay:10.37,2013-03-10 06:13:00,
2013-03-10 06:18:00,36.7,34.0,29.66,NNW,342,0.0,0.0,90,0.00,CLR,,0.00,WeatherDisplay:10.37,2013-03-10 06:18:00,
2013-03-10 06:19:00,36.6,33.7,29.67,NNE,20,4.0,4.0,89,0.00,CLR,,0.00,WeatherDisplay:10.37,2013-03-10 06:19:00,
2013-03-10 06:20:00,36.6,33.7,29.67,NW,318,3.5,3.5,89,0.00,CLR,,0.00,WeatherDisplay:10.37,2013-03-10 06:20:00,
2013-03-10 06:21:00,36.6,33.7,29.67,West,269,3.5,3.5,89,0.00,CLR,,0.00,WeatherDisplay:10.37,2013-03-10 06:21:00,
2013-03-10 06:22:00,36.6,33.7,29.67,ESE,106,3.5,3.5,89,0.00,CLR,,0.00,WeatherDisplay:10.37,2013-03-10 06:22:00,
2013-03-10 06:23:00,36.7,34.0,29.67,East,92,2.3,0.0,90,0.00,CLR,,0.00,WeatherDisplay:10.37,2013-03-10 06:23:00,
2013-03-10 06:28:00,36.6,33.7,29.67,NW,305,1.1,1.1,89,0.00,CLR,,0.00,WeatherDisplay:10.37,2013-03-10 06:28:00,
2013-03-10 06:29:00,36.6,33.7,29.67,NNW,338,2.3,2.3,89,0.00,CLR,,0.00,WeatherDisplay:10.37,2013-03-10 06:29:00,
2013-03-10 06:30:00,36.6,33.7,29.67,NW,321,2.3,2.3,89,0.00,CLR,,0.00,WeatherDisplay:10.37,2013-03-10 06:30:00,
2013-03-10 06:31:00,36.6,33.7,29.67,South,191,3.5,3.5,89,0.00,CLR,,0.00,WeatherDisplay:10.37,2013-03-10 06:31:00,
2013-03-10 06:32:00,36.6,33.7,29.67,West,263,3.5,3.5,89,0.00,CLR,,0.00,WeatherDisplay:10.37,2013-03-10 06:32:00,
2013-03-10 06:33:00,36.6,33.7,29.67,NNE,20,4.0,4.0,89,0.00,CLR,,0.00,WeatherDisplay:10.37,2013-03-10 06:33:00,
2013-03-10 06:34:00,36.6,33.7,29.67,ENE,71,3.5,3.5,89,0.00,CLR,,0.00,WeatherDisplay:10.37,2013-03-10 06:34:00,
2013-03-10 06:38:00,36.6,33.7,29.67,NNW,333,2.3,2.3,89,0.00,CLR,,0.00,WeatherDisplay:10.37,2013-03-10 06:38:00,
2013-03-10 06:43:00,36.6,33.7,29.67,NNW,338,2.3,2.3,89,0.00,CLR,,0.00,WeatherDisplay:10.37,2013-03-10 06:43:00,
2013-03-10 06:48:00,36.6,33.7,29.67,NE,43,6.9,6.9,89,0.00,CLR,,0.00,WeatherDisplay:10.37,2013-03-10 06:48:00,
2013-03-10 06:53:00,36.6,33.7,29.67,WSW,256,3.5,3.5,89,0.00,CLR,,0.00,WeatherDisplay:10.37,2013-03-10 06:53:00,
2013-03-10 06:58:00,36.6,33.7,29.67,West,281,1.1,1.1,89,0.00,CLR,,0.00,WeatherDisplay:10.37,2013-03-10 06:58:00,
2013-03-10 07:03:00,36.7,33.8,29.67,North,11,2.3,2.3,89,0.00,CLR,,0.00,WeatherDisplay:10.37,2013-03-10 07:03:00,
2013-03-10 07:08:00,36.7,33.8,29.67,NNW,333,3.5,3.5,89,0.00,CLR,,0.00,WeatherDisplay:10.37,2013-03-10 07:08:00,
2013-03-10 07:10:00,36.8,33.9,29.67,NW,325,3.5,3.5,89,0.00,CLR,,0.00,WeatherDisplay:10.37,2013-03-10 07:10:00,
2013-03-10 07:11:00,36.8,33.9,29.67,West,259,3.5,3.5,89,0.00,CLR,,0.00,WeatherDisplay:10.37,2013-03-10 07:11:00,
2013-03-10 07:12:00,36.8,33.9,29.67,East,82,3.5,3.5,89,0.00,CLR,,0.00,WeatherDisplay:10.37,2013-03-10 07:12:00,
2013-03-10 07:13:00,36.7,33.8,29.67,NNW,339,2.0,2.0,89,0.00,CLR,,0.00,WeatherDisplay:10.37,2013-03-10 07:13:00,
2013-03-10 07:14:00,36.8,33.9,29.67,WSW,242,2.3,2.3,89,0.00,CLR,,0.00,WeatherDisplay:10.37,2013-03-10 07:14:00,
2013-03-10 07:15:00,36.8,33.9,29.67,NW,315,5.8,5.8,89,0.00,CLR,,0.00,WeatherDisplay:10.37,2013-03-10 07:15:00,
2013-03-10 07:16:00,36.8,33.9,29.67,SSE,153,3.5,3.5,89,0.00,CLR,,0.00,WeatherDisplay:10.37,2013-03-10 07:16:00,
2013-03-10 07:18:00,36.8,33.9,29.67,ESE,108,0.0,0.0,89,0.00,CLR,,0.00,WeatherDisplay:10.37,2013-03-10 07:18:00,
2013-03-10 07:20:00,36.8,33.9,29.67,NW,324,1.0,5.0,89,0.00,CLR,,0.00,WeatherDisplay:10.37,2013-03-10 07:20:00,
2013-03-10 07:21:00,36.9,34.0,29.67,North,11,3.5,3.5,89,0.00,CLR,,0.00,WeatherDisplay:10.37,2013-03-10 07:21:00,
2013-03-10 07:22:00,36.9,34.0,29.67,NNW,331,3.0,3.0,89,0.00,CLR,,0.00,WeatherDisplay:10.37,2013-03-10 07:22:00,
2013-03-10 07:23:00,36.8,33.9,29.67,ENE,57,2.3,2.3,89,0.00,CLR,,0.00,WeatherDisplay:10.37,2013-03-10 07:23:00,
2013-03-10 07:24:00,36.9,34.0,29.67,SSE,148,1.1,0.0,89,0.00,CLR,,0.00,WeatherDisplay:10.37,2013-03-10 07:24:00,
2013-03-10 07:28:00,36.8,33.9,29.67,WSW,257,5.8,5.8,89,0.00,CLR,,0.00,WeatherDisplay:10.37,2013-03-10 07:28:00,
2013-03-10 07:29:00,37.0,34.1,29.67,NW,321,1.1,1.3,89,0.00,CLR,,0.00,WeatherDisplay:10.37,2013-03-10 07:29:00,
2013-03-10 07:30:00,37.0,34.0,29.67,NW,313,1.0,7.0,89,0.00,CLR,,0.00,WeatherDisplay:10.37,2013-03-10 07:30:00,
2013-03-10 07:31:00,36.9,34.0,29.67,WNW,294,4.0,4.0,89,0.00,CLR,,0.00,WeatherDisplay:10.37,2013-03-10 07:31:00,
2013-03-10 07:32:00,37.0,34.1,29.67,WSW,240,3.5,3.5,89,0.00,CLR,,0.00,WeatherDisplay:10.37,2013-03-10 07:32:00,
2013-03-10 07:33:00,36.8,33.9,29.67,WNW,302,3.5,3.5,89,0.00,CLR,,0.00,WeatherDisplay:10.37,2013-03-10 07:33:00,
2013-03-10 07:34:00,37.0,34.1,29.67,NW,305,3.5,3.5,89,0.00,CLR,,0.00,WeatherDisplay:10.37,2013-03-10 07:34:00,
2013-03-10 07:38:00,36.9,34.0,29.67,ENE,57,3.5,3.5,89,0.00,CLR,,0.00,WeatherDisplay:10.37,2013-03-10 07:38:00,
2013-03-10 07:43:00,37.0,34.1,29.67,NW,321,1.1,1.3,89,0.00,CLR,,0.00,WeatherDisplay:10.37,2013-03-10 07:43:00,
2013-03-10 07:48:00,37.0,34.1,29.67,NE,51,2.3,2.3,89,0.00,CLR,,0.00,WeatherDisplay:10.37,2013-03-10 07:48:00,
2013-03-10 07:53:00,37.1,34.2,29.67,ESE,108,4.6,4.6,89,0.00,CLR,,0.00,WeatherDisplay:10.37,2013-03-10 07:53:00,
2013-03-10 07:58:00,37.1,34.2,29.67,NE,51,2.3,2.3,89,0.00,CLR,,0.00,WeatherDisplay:10.37,2013-03-10 07:58:00,
2013-03-10 08:03:00,37.2,34.3,29.67,North,356,3.5,3.5,89,0.00,CLR,,0.00,WeatherDisplay:10.37,2013-03-10 08:03:00,
2013-03-10 08:08:00,37.2,34.0,29.67,NNW,342,3.5,3.5,88,0.00,CLR,,0.00,WeatherDisplay:10.37,2013-03-10 08:08:00,
2013-03-10 08:09:00,37.4,34.2,29.68,ESE,115,4.6,4.6,88,0.00,CLR,,0.00,WeatherDisplay:10.37,2013-03-10 08:09:00,
2013-03-10 08:10:00,37.4,34.2,29.68,West,274,2.3,2.3,88,0.00,CLR,,0.00,WeatherDisplay:10.37,2013-03-10 08:10:00,
2013-03-10 08:11:00,37.4,34.2,29.68,NNW,330,3.5,3.5,88,0.00,CLR,,0.00,WeatherDisplay:10.37,2013-03-10 08:11:00,
2013-03-10 08:12:00,37.5,34.3,29.68,WNW,286,4.0,4.0,88,0.00,CLR,,0.00,WeatherDisplay:10.37,2013-03-10 08:12:00,
2013-03-10 08:13:00,37.3,34.1,29.68,WNW,297,3.5,3.5,88,0.00,CLR,,0.00,WeatherDisplay:10.37,2013-03-10 08:13:00,
2013-03-10 08:14:00,37.5,34.3,29.68,ESE,118,3.5,3.5,88,0.00,CLR,,0.00,WeatherDisplay:10.37,2013-03-10 08:14:00,
2013-03-10 08:18:00,37.4,34.2,29.68,WNW,294,3.5,3.5,88,0.00,CLR,,0.00,WeatherDisplay:10.37,2013-03-10 08:18:00,
2013-03-10 08:20:00,37.5,34.3,29.68,NNE,12,6.0,6.0,88,0.00,CLR,,0.00,WeatherDisplay:10.37,2013-03-10 08:20:00,
2013-03-10 08:21:00,37.5,34.3,29.68,WNW,284,5.8,5.8,88,0.00,CLR,,0.00,WeatherDisplay:10.37,2013-03-10 08:21:00,
2013-03-10 08:22:00,37.5,34.3,29.68,East,88,8.1,8.1,88,0.00,CLR,,0.00,WeatherDisplay:10.37,2013-03-10 08:22:00,
2013-03-10 08:23:00,37.4,34.2,29.68,ESE,115,4.6,4.6,88,0.00,CLR,,0.00,WeatherDisplay:10.37,2013-03-10 08:23:00,
2013-03-10 08:24:00,37.5,34.3,29.68,NNW,329,4.6,4.6,88,0.00,CLR,,0.00,WeatherDisplay:10.37,2013-03-10 08:24:00,
2013-03-10 08:28:00,37.5,34.3,29.68,West,279,2.3,0.0,88,0.00,CLR,,0.00,WeatherDisplay:10.37,2013-03-10 08:28:00,
2013-03-10 08:30:00,37.5,34.3,29.68,NW,315,2.0,6.0,88,0.00,CLR,,0.00,WeatherDisplay:10.37,2013-03-10 08:30:00,
2013-03-10 08:31:00,37.5,34.3,29.68,ENE,77,4.6,4.6,88,0.00,CLR,,0.00,WeatherDisplay:10.37,2013-03-10 08:31:00,
2013-03-10 08:32:00,37.5,34.3,29.68,NE,45,3.5,3.5,88,0.00,CLR,,0.00,WeatherDisplay:10.37,2013-03-10 08:32:00,
2013-03-10 08:33:00,37.5,34.3,29.68,NW,307,4.0,4.0,88,0.00,CLR,,0.00,WeatherDisplay:10.37,2013-03-10 08:33:00,
2013-03-10 08:34:00,37.5,34.3,29.68,ESE,110,3.5,3.5,88,0.00,CLR,,0.00,WeatherDisplay:10.37,2013-03-10 08:34:00,
2013-03-10 08:38:00,37.5,34.3,29.68,West,264,4.6,4.6,88,0.00,CLR,,0.00,WeatherDisplay:10.37,2013-03-10 08:38:00,
2013-03-10 08:40:00,37.6,34.4,29.68,NE,38,3.5,3.5,88,0.00,CLR,,0.00,WeatherDisplay:10.37,2013-03-10 08:40:00,
2013-03-10 08:41:00,37.6,34.4,29.68,ESE,122,3.5,3.5,88,0.00,CLR,,0.00,WeatherDisplay:10.37,2013-03-10 08:41:00,
2013-03-10 08:42:00,37.6,34.4,29.68,NNW,339,3.5,3.5,88,0.00,CLR,,0.00,WeatherDisplay:10.37,2013-03-10 08:42:00,
2013-03-10 08:43:00,37.5,34.3,29.68,WNW,289,5.8,5.8,88,0.00,CLR,,0.00,WeatherDisplay:10.37,2013-03-10 08:43:00,
2013-03-10 08:44:00,37.6,34.4,29.68,West,279,3.5,3.5,88,0.00,CLR,,0.00,WeatherDisplay:10.37,2013-03-10 08:44:00,
2013-03-10 08:48:00,37.6,34.4,29.68,NW,314,9.2,9.2,88,0.00,CLR,,0.00,WeatherDisplay:10.37,2013-03-10 08:48:00,
2013-03-10 08:53:00,37.6,34.4,29.68,West,259,4.0,4.0,88,0.00,CLR,,0.00,WeatherDisplay:10.37,2013-03-10 08:53:00,
2013-03-10 08:58:00,37.6,34.4,29.68,West,273,1.1,1.1,88,0.00,CLR,,0.00,WeatherDisplay:10.37,2013-03-10 08:58:00,
2013-03-10 09:03:00,37.7,34.2,29.68,NNW,329,3.5,3.5,87,0.00,CLR,,0.00,WeatherDisplay:10.37,2013-03-10 09:03:00,
2013-03-10 09:08:00,37.7,34.2,29.68,ESE,113,4.6,4.6,87,0.00,CLR,,0.00,WeatherDisplay:10.37,2013-03-10 09:08:00,
2013-03-10 09:09:00,37.8,34.3,29.68,ENE,60,4.6,4.6,87,0.00,CLR,,0.00,WeatherDisplay:10.37,2013-03-10 09:09:00,
2013-03-10 09:10:00,37.8,34.3,29.68,NW,310,1.0,5.0,87,0.00,CLR,,0.00,WeatherDisplay:10.37,2013-03-10 09:10:00,
2013-03-10 09:11:00,37.9,34.4,29.68,NW,312,4.0,4.0,87,0.00,CLR,,0.00,WeatherDisplay:10.37,2013-03-10 09:11:00,
2013-03-10 09:12:00,37.9,34.4,29.68,WSW,257,3.5,3.5,87,0.00,CLR,,0.00,WeatherDisplay:10.37,2013-03-10 09:12:00,
2013-03-10 09:13:00,37.8,34.6,29.68,ESE,110,2.3,2.3,88,0.00,CLR,,0.00,WeatherDisplay:10.37,2013-03-10 09:13:00,
2013-03-10 09:14:00,37.9,34.4,29.68,SSW,202,2.3,2.3,87,0.00,CLR,,0.00,WeatherDisplay:10.37,2013-03-10 09:14:00,
2013-03-10 09:15:00,37.9,34.4,29.68,WNW,303,1.0,4.0,87,0.00,CLR,,0.00,WeatherDisplay:10.37,2013-03-10 09:15:00,
2013-03-10 09:18:00,37.8,34.3,29.68,NW,316,4.0,4.0,87,0.00,CLR,,0.00,WeatherDisplay:10.37,2013-03-10 09:18:00,
2013-03-10 09:19:00,38.0,34.5,29.68,NE,39,4.0,4.0,87,0.00,CLR,,0.00,WeatherDisplay:10.37,2013-03-10 09:19:00,
2013-03-10 09:20:00,38.1,34.6,29.68,ESE,108,4.6,4.6,87,0.00,CLR,,0.00,WeatherDisplay:10.37,2013-03-10 09:20:00,
2013-03-10 09:21:00,38.1,34.6,29.68,SW,218,3.5,3.5,87,0.00,CLR,,0.00,WeatherDisplay:10.37,2013-03-10 09:21:00,
2013-03-10 09:22:00,38.1,34.6,29.68,ESE,103,0.0,0.0,87,0.00,CLR,,0.00,WeatherDisplay:10.37,2013-03-10 09:22:00,
2013-03-10 09:23:00,37.8,34.3,29.68,ENE,60,4.6,4.6,87,0.00,CLR,,0.00,WeatherDisplay:10.37,2013-03-10 09:23:00,
2013-03-10 09:28:00,38.0,34.5,29.68,WNW,292,3.5,3.5,87,0.00,CLR,,0.00,WeatherDisplay:10.37,2013-03-10 09:28:00,
2013-03-10 09:33:00,38.1,34.6,29.68,ESE,114,4.6,4.6,87,0.00,CLR,,0.00,WeatherDisplay:10.37,2013-03-10 09:33:00,
2013-03-10 09:38:00,38.2,34.7,29.68,SE,145,2.3,2.3,87,0.00,CLR,,0.00,WeatherDisplay:10.37,2013-03-10 09:38:00,
2013-03-10 09:40:00,38.3,34.4,29.68,East,101,1.0,9.0,86,0.00,CLR,,0.00,WeatherDisplay:10.37,2013-03-10 09:40:00,
2013-03-10 09:41:00,38.2,34.4,29.68,WNW,295,1.1,1.2,86,0.00,CLR,,0.00,WeatherDisplay:10.37,2013-03-10 09:41:00,
2013-03-10 09:42:00,38.3,34.5,29.68,West,270,3.5,3.5,86,0.00,CLR,,0.00,WeatherDisplay:10.37,2013-03-10 09:42:00,
2013-03-10 09:43:00,38.3,34.5,29.68,SE,124,3.5,3.5,86,0.00,CLR,,0.00,WeatherDisplay:10.37,2013-03-10 09:43:00,
2013-03-10 09:44:00,38.3,34.5,29.68,North,350,3.5,3.5,86,0.00,CLR,,0.00,WeatherDisplay:10.37,2013-03-10 09:44:00,
2013-03-10 09:45:00,38.3,34.5,29.68,NNW,330,4.0,4.0,86,0.00,CLR,,0.00,WeatherDisplay:10.37,2013-03-10 09:45:00,
2013-03-10 09:48:00,38.3,34.5,29.68,NNW,335,6.0,6.0,86,0.00,CLR,,0.00,WeatherDisplay:10.37,2013-03-10 09:48:00,
2013-03-10 09:50:00,38.3,34.5,29.69,NE,42,1.0,4.0,86,0.00,CLR,,0.00,WeatherDisplay:10.37,2013-03-10 09:50:00,
2013-03-10 09:51:00,38.3,34.5,29.69,ESE,109,4.6,4.6,86,0.00,CLR,,0.00,WeatherDisplay:10.37,2013-03-10 09:51:00,
2013-03-10 09:52:00,38.2,34.4,29.69,NE,51,2.3,2.3,86,0.00,CLR,,0.00,WeatherDisplay:10.37,2013-03-10 09:52:00,
2013-03-10 09:53:00,38.3,34.5,29.68,ESE,119,2.3,2.3,86,0.00,CLR,,0.00,WeatherDisplay:10.37,2013-03-10 09:53:00,
2013-03-10 09:54:00,38.2,34.1,29.69,ENE,67,5.8,5.8,85,0.00,CLR,,0.00,WeatherDisplay:10.37,2013-03-10 09:54:00,
2013-03-10 09:58:00,38.3,34.5,29.68,NNW,336,2.3,2.3,86,0.00,CLR,,0.00,WeatherDisplay:10.37,2013-03-10 09:58:00,
2013-03-10 10:03:00,38.3,34.5,29.69,ENE,75,3.5,3.5,86,0.00,CLR,,0.00,WeatherDisplay:10.37,2013-03-10 10:03:00,
2013-03-10 10:08:00,38.2,34.1,29.69,SE,138,5.8,5.8,85,0.00,CLR,,0.00,WeatherDisplay:10.37,2013-03-10 10:08:00,
2013-03-10 10:10:00,38.3,34.5,29.68,North,11,1.0,6.0,86,0.00,CLR,,0.00,WeatherDisplay:10.37,2013-03-10 10:10:00,
2013-03-10 10:11:00,38.4,34.6,29.68,NE,55,4.6,4.6,86,0.00,CLR,,0.00,WeatherDisplay:10.37,2013-03-10 10:11:00,
2013-03-10 10:12:00,38.4,34.3,29.68,NNE,29,3.5,3.5,85,0.00,CLR,,0.00,WeatherDisplay:10.37,2013-03-10 10:12:00,
2013-03-10 10:13:00,38.2,34.1,29.69,WNW,302,3.5,3.5,85,0.00,CLR,,0.00,WeatherDisplay:10.37,2013-03-10 10:13:00,
2013-03-10 10:14:00,38.4,34.3,29.69,West,277,8.1,8.1,85,0.00,CLR,,0.00,WeatherDisplay:10.37,2013-03-10 10:14:00,
2013-03-10 10:15:00,38.4,34.3,29.69,SSW,194,2.3,2.3,85,0.00,CLR,,0.00,WeatherDisplay:10.37,2013-03-10 10:15:00,
2013-03-10 10:18:00,38.3,34.2,29.68,WNW,294,5.8,5.8,85,0.00,CLR,,0.00,WeatherDisplay:10.37,2013-03-10 10:18:00,
2013-03-10 10:19:00,38.5,34.4,29.69,NW,309,4.6,4.6,85,0.00,CLR,,0.00,WeatherDisplay:10.37,2013-03-10 10:19:00,
2013-03-10 10:20:00,38.5,34.7,29.69,NNE,16,2.0,6.0,86,0.00,CLR,,0.00,WeatherDisplay:10.37,2013-03-10 10:20:00,
2013-03-10 10:21:00,38.6,34.5,29.69,NW,309,4.6,4.6,85,0.00,CLR,,0.00,WeatherDisplay:10.37,2013-03-10 10:21:00,
2013-03-10 10:22:00,38.6,34.8,29.69,NW,316,4.6,4.6,86,0.00,CLR,,0.00,WeatherDisplay:10.37,2013-03-10 10:22:00,
2013-03-10 10:23:00,38.3,34.5,29.68,NNE,23,4.6,4.6,86,0.00,CLR,,0.00,WeatherDisplay:10.37,2013-03-10 10:23:00,
2013-03-10 10:24:00,38.7,34.6,29.69,SW,225,3.5,3.5,85,0.00,CLR,,0.00,WeatherDisplay:10.37,2013-03-10 10:24:00,
2013-03-10 10:25:00,38.8,34.7,29.69,WNW,302,3.5,3.5,85,0.00,CLR,,0.00,WeatherDisplay:10.37,2013-03-10 10:25:00,
2013-03-10 10:28:00,38.4,34.3,29.69,West,280,2.3,2.3,85,0.00,CLR,,0.00,WeatherDisplay:10.37,2013-03-10 10:28:00,
2013-03-10 10:29:00,38.9,34.8,29.69,NNW,335,7.0,7.0,85,0.00,CLR,,0.00,WeatherDisplay:10.37,2013-03-10 10:29:00,
2013-03-10 10:30:00,38.8,34.4,29.69,WNW,283,6.9,6.9,84,0.00,CLR,,0.00,WeatherDisplay:10.37,2013-03-10 10:30:00,
2013-03-10 10:31:00,38.8,34.4,29.69,South,170,6.9,6.9,84,0.00,CLR,,0.00,WeatherDisplay:10.37,2013-03-10 10:31:00,
2013-03-10 10:32:00,38.8,34.4,29.69,West,274,3.5,3.5,84,0.00,CLR,,0.00,WeatherDisplay:10.37,2013-03-10 10:32:00,
2013-03-10 10:33:00,38.5,34.4,29.69,NW,309,5.8,5.8,85,0.00,CLR,,0.00,WeatherDisplay:10.37,2013-03-10 10:33:00,
2013-03-10 10:34:00,38.8,34.4,29.69,NW,310,6.9,6.9,84,0.00,CLR,,0.00,WeatherDisplay:10.37,2013-03-10 10:34:00,
2013-03-10 10:35:00,38.8,34.4,29.69,SW,231,5.8,5.8,84,0.00,CLR,,0.00,WeatherDisplay:10.37,2013-03-10 10:35:00,
2013-03-10 10:38:00,38.8,34.7,29.69,NW,315,3.5,3.5,85,0.00,CLR,,0.00,WeatherDisplay:10.37,2013-03-10 10:38:00,
2013-03-10 10:43:00,38.8,34.4,29.69,East,94,6.9,6.9,84,0.00,CLR,,0.00,WeatherDisplay:10.37,2013-03-10 10:43:00,
2013-03-10 10:48:00,38.8,34.4,29.69,East,95,5.8,5.8,84,0.00,CLR,,0.00,WeatherDisplay:10.37,2013-03-10 10:48:00,
2013-03-10 10:49:00,38.7,34.3,29.69,ESE,113,3.5,3.5,84,0.00,CLR,,0.00,WeatherDisplay:10.37,2013-03-10 10:49:00,
2013-03-10 10:50:00,38.7,34.3,29.69,SE,131,4.6,4.6,84,0.00,CLR,,0.00,WeatherDisplay:10.37,2013-03-10 10:50:00,
2013-03-10 10:51:00,38.7,34.3,29.69,SE,143,4.6,4.6,84,0.00,CLR,,0.00,WeatherDisplay:10.37,2013-03-10 10:51:00,
2013-03-10 10:52:00,38.8,34.4,29.69,NE,42,3.5,3.5,84,0.00,CLR,,0.00,WeatherDisplay:10.37,2013-03-10 10:52:00,
2013-03-10 10:53:00,38.7,34.3,29.69,WSW,243,7.0,7.0,84,0.00,CLR,,0.00,WeatherDisplay:10.37,2013-03-10 10:53:00,
2013-03-10 10:54:00,38.8,34.4,29.69,East,84,3.5,3.5,84,0.00,CLR,,0.00,WeatherDisplay:10.37,2013-03-10 10:54:00,
2013-03-10 10:55:00,38.8,34.4,29.69,WNW,286,4.0,4.0,84,0.00,CLR,,0.00,WeatherDisplay:10.37,2013-03-10 10:55:00,
2013-03-10 10:58:00,38.7,34.3,29.69,West,277,4.6,4.6,84,0.00,CLR,,0.00,WeatherDisplay:10.37,2013-03-10 10:58:00,
2013-03-10 11:03:00,38.7,34.3,29.69,ESE,120,4.6,4.6,84,0.00,CLR,,0.00,WeatherDisplay:10.37,2013-03-10 11:03:00,
2013-03-10 11:08:00,38.8,34.4,29.69,ESE,116,3.5,3.5,84,0.00,CLR,,0.00,WeatherDisplay:10.37,2013-03-10 11:08:00,
2013-03-10 11:09:00,38.9,34.5,29.69,West,270,3.5,3.5,84,0.00,CLR,,0.00,WeatherDisplay:10.37,2013-03-10 11:09:00,
2013-03-10 11:10:00,38.8,34.4,29.69,SE,134,1.0,6.0,84,0.00,CLR,,0.00,WeatherDisplay:10.37,2013-03-10 11:10:00,
2013-03-10 11:11:00,38.9,34.2,29.69,South,171,3.5,3.5,83,0.00,CLR,,0.00,WeatherDisplay:10.37,2013-03-10 11:11:00,
2013-03-10 11:12:00,38.9,34.2,29.69,WNW,302,3.5,3.5,83,0.00,CLR,,0.00,WeatherDisplay:10.37,2013-03-10 11:12:00,
2013-03-10 11:13:00,38.7,34.3,29.69,NNE,23,5.8,5.8,84,0.00,CLR,,0.00,WeatherDisplay:10.37,2013-03-10 11:13:00,
2013-03-10 11:14:00,38.9,34.2,29.69,West,264,4.6,4.6,83,0.00,CLR,,0.00,WeatherDisplay:10.37,2013-03-10 11:14:00,
2013-03-10 11:15:00,38.9,34.2,29.69,ESE,110,3.5,3.5,83,0.00,CLR,,0.00,WeatherDisplay:10.37,2013-03-10 11:15:00,
2013-03-10 11:16:00,38.9,34.2,29.69,SE,135,5.8,5.8,83,0.00,CLR,,0.00,WeatherDisplay:10.37,2013-03-10 11:16:00,
2013-03-10 11:18:00,38.8,34.4,29.69,ESE,113,5.0,5.0,84,0.00,CLR,,0.00,WeatherDisplay:10.37,2013-03-10 11:18:00,
2013-03-10 11:20:00,39.0,34.3,29.70,East,79,4.6,4.6,83,0.00,CLR,,0.00,WeatherDisplay:10.37,2013-03-10 11:20:00,
2013-03-10 11:21:00,39.0,34.3,29.70,WNW,302,6.0,6.0,83,0.00,CLR,,0.00,WeatherDisplay:10.37,2013-03-10 11:21:00,
2013-03-10 11:22:00,39.0,34.0,29.70,WNW,291,5.8,5.8,82,0.00,CLR,,0.00,WeatherDisplay:10.37,2013-03-10 11:22:00,
2013-03-10 11:23:00,38.9,34.2,29.69,West,263,3.5,3.5,83,0.00,CLR,,0.00,WeatherDisplay:10.37,2013-03-10 11:23:00,
2013-03-10 11:24:00,39.0,34.3,29.69,WNW,283,3.5,3.5,83,0.00,CLR,,0.00,WeatherDisplay:10.37,2013-03-10 11:24:00,
2013-03-10 11:25:00,39.0,34.3,29.69,ESE,120,4.6,4.6,83,0.00,CLR,,0.00,WeatherDisplay:10.37,2013-03-10 11:25:00,
2013-03-10 11:28:00,38.9,34.2,29.69,NNE,12,3.5,3.5,83,0.00,CLR,,0.00,WeatherDisplay:10.37,2013-03-10 11:28:00,
2013-03-10 11:29:00,39.2,34.5,29.70,East,88,5.8,5.8,83,0.00,CLR,,0.00,WeatherDisplay:10.37,2013-03-10 11:29:00,
2013-03-10 11:30:00,39.2,34.5,29.69,North,349,5.8,5.8,83,0.00,CLR,,0.00,WeatherDisplay:10.37,2013-03-10 11:30:00,
2013-03-10 11:31:00,39.2,34.2,29.69,North,352,4.0,4.0,82,0.00,CLR,,0.00,WeatherDisplay:10.37,2013-03-10 11:31:00,
2013-03-10 11:32:00,39.2,34.2,29.69,WSW,258,3.5,3.5,82,0.00,CLR,,0.00,WeatherDisplay:10.37,2013-03-10 11:32:00,
2013-03-10 11:33:00,39.0,34.3,29.69,ESE,120,4.6,4.6,83,0.00,CLR,,0.00,WeatherDisplay:10.37,2013-03-10 11:33:00,
2013-03-10 11:34:00,39.2,34.2,29.70,ESE,104,4.6,4.6,82,0.00,CLR,,0.00,WeatherDisplay:10.37,2013-03-10 11:34:00,
2013-03-10 11:35:00,39.2,34.2,29.70,WNW,290,9.2,9.2,82,0.00,CLR,,0.00,WeatherDisplay:10.37,2013-03-10 11:35:00,
2013-03-10 11:38:00,39.0,34.3,29.69,WNW,287,4.6,4.6,83,0.00,CLR,,0.00,WeatherDisplay:10.37,2013-03-10 11:38:00,
2013-03-10 11:40:00,39.2,33.9,29.70,ESE,112,5.8,5.8,81,0.00,CLR,,0.00,WeatherDisplay:10.37,2013-03-10 11:40:00,
2013-03-10 11:41:00,39.2,33.9,29.69,SE,127,5.8,5.8,81,0.00,CLR,,0.00,WeatherDisplay:10.37,2013-03-10 11:41:00,
2013-03-10 11:42:00,39.2,33.9,29.69,SW,228,5.8,5.8,81,0.00,CLR,,0.00,WeatherDisplay:10.37,2013-03-10 11:42:00,
2013-03-10 11:43:00,39.2,34.2,29.69,North,354,5.8,5.8,82,0.00,CLR,,0.00,WeatherDisplay:10.37,2013-03-10 11:43:00,
2013-03-10 11:44:00,39.1,34.1,29.69,SW,226,4.6,4.6,82,0.00,CLR,,0.00,WeatherDisplay:10.37,2013-03-10 11:44:00,
2013-03-10 11:45:00,39.1,34.1,29.69,SE,136,3.5,3.5,82,0.00,CLR,,0.00,WeatherDisplay:10.37,2013-03-10 11:45:00,
2013-03-10 11:48:00,39.2,34.2,29.70,NE,54,9.2,9.2,82,0.00,CLR,,0.00,WeatherDisplay:10.37,2013-03-10 11:48:00,
2013-03-10 11:53:00,39.2,33.9,29.69,ESE,103,6.0,6.0,81,0.00,CLR,,0.00,WeatherDisplay:10.37,2013-03-10 11:53:00,
2013-03-10 11:58:00,39.1,34.1,29.69,WNW,284,3.5,3.5,82,0.00,CLR,,0.00,WeatherDisplay:10.37,2013-03-10 11:58:00,
2013-03-10 12:03:00,39.1,34.1,29.69,SE,128,4.0,4.1,82,0.00,CLR,,0.00,WeatherDisplay:10.37,2013-03-10 12:03:00,
2013-03-10 12:08:00,39.2,34.2,29.69,East,91,5.0,5.0,82,0.00,CLR,,0.00,WeatherDisplay:10.37,2013-03-10 12:08:00,
2013-03-10 12:10:00,39.3,33.6,29.69,NNE,32,10.4,10.4,80,0.00,CLR,,0.00,WeatherDisplay:10.37,2013-03-10 12:10:00,
2013-03-10 12:11:00,39.3,33.6,29.69,NE,48,10.4,10.4,80,0.00,CLR,,0.00,WeatherDisplay:10.37,2013-03-10 12:11:00,
2013-03-10 12:12:00,39.2,33.9,29.69,East,79,6.9,6.9,81,0.00,CLR,,0.00,WeatherDisplay:10.37,2013-03-10 12:12:00,
2013-03-10 12:13:00,39.2,33.9,29.69,NW,307,5.8,5.8,81,0.00,CLR,,0.00,WeatherDisplay:10.37,2013-03-10 12:13:00,
2013-03-10 12:14:00,39.3,34.0,29.69,SE,131,4.6,4.6,81,0.00,CLR,,0.00,WeatherDisplay:10.37,2013-03-10 12:14:00,
2013-03-10 12:18:00,39.3,34.0,29.69,West,267,6.9,6.9,81,0.00,CLR,,0.00,WeatherDisplay:10.37,2013-03-10 12:18:00,
2013-03-10 12:20:00,39.3,34.0,29.69,East,82,5.0,5.0,81,0.00,CLR,,0.00,WeatherDisplay:10.37,2013-03-10 12:20:00,
2013-03-10 12:21:00,39.3,34.0,29.69,SSE,152,4.6,4.6,81,0.00,CLR,,0.00,WeatherDisplay:10.37,2013-03-10 12:21:00,
2013-03-10 12:22:00,39.2,33.9,29.69,SE,133,5.0,5.0,81,0.00,CLR,,0.00,WeatherDisplay:10.37,2013-03-10 12:22:00,
2013-03-10 12:23:00,39.3,33.6,29.69,WNW,284,10.4,10.4,80,0.00,CLR,,0.00,WeatherDisplay:10.37,2013-03-10 12:23:00,
2013-03-10 12:24:00,39.2,33.9,29.69,West,264,4.6,4.6,81,0.00,CLR,,0.00,WeatherDisplay:10.37,2013-03-10 12:24:00,
2013-03-10 12:25:00,39.2,33.9,29.69,ENE,77,4.6,4.6,81,0.00,CLR,,0.00,WeatherDisplay:10.37,2013-03-10 12:25:00,
2013-03-10 12:28:00,39.3,33.6,29.69,WSW,242,9.2,9.2,80,0.00,CLR,,0.00,WeatherDisplay:10.37,2013-03-10 12:28:00,
2013-03-10 12:33:00,39.3,34.0,29.69,SSE,155,4.6,4.6,81,0.00,CLR,,0.00,WeatherDisplay:10.37,2013-03-10 12:33:00,
2013-03-10 12:38:00,39.2,33.9,29.69,ESE,123,4.6,4.6,81,0.00,CLR,,0.00,WeatherDisplay:10.37,2013-03-10 12:38:00,
2013-03-10 12:40:00,38.9,33.6,29.70,East,92,3.5,3.5,81,0.00,CLR,,0.00,WeatherDisplay:10.37,2013-03-10 12:40:00,
2013-03-10 12:41:00,38.9,33.6,29.69,SE,137,3.5,3.5,81,0.00,CLR,,0.00,WeatherDisplay:10.37,2013-03-10 12:41:00,
2013-03-10 12:42:00,38.9,33.6,29.70,NW,321,4.0,4.0,81,0.00,CLR,,0.00,WeatherDisplay:10.37,2013-03-10 12:42:00,
2013-03-10 12:43:00,39.1,33.8,29.69,NNW,344,5.8,5.8,81,0.00,CLR,,0.00,WeatherDisplay:10.37,2013-03-10 12:43:00,
2013-03-10 12:44:00,38.9,33.6,29.70,SE,143,3.5,3.5,81,0.00,CLR,,0.00,WeatherDisplay:10.37,2013-03-10 12:44:00,
2013-03-10 12:48:00,39.0,33.7,29.69,East,79,6.9,6.9,81,0.00,CLR,,0.00,WeatherDisplay:10.37,2013-03-10 12:48:00,
2013-03-10 12:50:00,38.7,33.7,29.70,NW,305,1.0,5.0,82,0.00,CLR,,0.00,WeatherDisplay:10.37,2013-03-10 12:50:00,
2013-03-10 12:51:00,38.7,33.7,29.70,West,280,2.3,2.3,82,0.00,CLR,,0.00,WeatherDisplay:10.37,2013-03-10 12:51:00,
2013-03-10 12:52:00,38.7,33.7,29.70,NE,51,3.5,3.5,82,0.00,CLR,,0.00,WeatherDisplay:10.37,2013-03-10 12:52:00,
2013-03-10 12:53:00,38.9,33.6,29.70,SSE,158,3.5,3.5,81,0.00,CLR,,0.00,WeatherDisplay:10.37,2013-03-10 12:53:00,
2013-03-10 12:54:00,38.7,33.4,29.70,NNW,333,4.6,4.6,81,0.00,CLR,,0.00,WeatherDisplay:10.37,2013-03-10 12:54:00,
2013-03-10 12:55:00,38.6,33.3,29.70,SSE,160,2.0,5.0,81,0.00,CLR,,0.00,WeatherDisplay:10.37,2013-03-10 12:55:00,
2013-03-10 12:58:00,38.8,33.5,29.70,East,83,3.5,3.5,81,0.00,CLR,,0.00,WeatherDisplay:10.37,2013-03-10 12:58:00,
2013-03-10 13:03:00,38.8,33.8,29.70,WNW,298,4.6,4.6,82,0.00,CLR,,0.00,WeatherDisplay:10.37,2013-03-10 13:03:00,
2013-03-10 13:08:00,38.6,33.3,29.69,NW,325,4.6,4.6,81,0.00,CLR,,0.00,WeatherDisplay:10.37,2013-03-10 13:08:00,
2013-03-10 13:10:00,38.4,33.4,29.69,East,101,8.1,8.1,82,0.00,CLR,,0.00,WeatherDisplay:10.37,2013-03-10 13:10:00,
2013-03-10 13:11:00,38.4,33.4,29.69,ESE,118,8.1,8.1,82,0.00,CLR,,0.00,WeatherDisplay:10.37,2013-03-10 13:11:00,
2013-03-10 13:12:00,38.4,33.4,29.69,SE,128,6.0,6.0,82,0.00,CLR,,0.00,WeatherDisplay:10.37,2013-03-10 13:12:00,
2013-03-10 13:13:00,38.5,33.2,29.69,SE,142,6.9,6.9,81,0.00,CLR,,0.00,WeatherDisplay:10.37,2013-03-10 13:13:00,
2013-03-10 13:14:00,38.4,33.4,29.69,WNW,289,3.5,3.5,82,0.00,CLR,,0.00,WeatherDisplay:10.37,2013-03-10 13:14:00,
2013-03-10 13:18:00,38.5,33.2,29.69,North,356,3.5,3.5,81,0.00,CLR,,0.00,WeatherDisplay:10.37,2013-03-10 13:18:00,
2013-03-10 13:20:00,38.4,33.4,29.69,WNW,295,2.0,6.0,82,0.00,CLR,,0.00,WeatherDisplay:10.37,2013-03-10 13:20:00,
2013-03-10 13:21:00,38.4,33.4,29.69,NNW,342,3.5,3.5,82,0.00,CLR,,0.00,WeatherDisplay:10.37,2013-03-10 13:21:00,
2013-03-10 13:22:00,38.4,33.4,29.69,WNW,297,3.5,3.5,82,0.00,CLR,,0.00,WeatherDisplay:10.37,2013-03-10 13:22:00,
2013-03-10 13:23:00,38.4,33.4,29.69,NE,41,8.1,8.1,82,0.00,CLR,,0.00,WeatherDisplay:10.37,2013-03-10 13:23:00,
2013-03-10 13:24:00,38.5,33.5,29.69,NE,42,3.5,3.5,82,0.00,CLR,,0.00,WeatherDisplay:10.37,2013-03-10 13:24:00,
2013-03-10 13:28:00,38.4,33.4,29.69,ESE,109,4.6,4.6,82,0.00,CLR,,0.00,WeatherDisplay:10.37,2013-03-10 13:28:00,
2013-03-10 13:33:00,38.4,33.4,29.69,NE,36,5.8,5.8,82,0.00,CLR,,0.00,WeatherDisplay:10.37,2013-03-10 13:33:00,
2013-03-10 13:38:00,38.5,33.8,29.69,ESE,114,2.3,2.3,83,0.00,CLR,,0.00,WeatherDisplay:10.37,2013-03-10 13:38:00,
2013-03-10 13:39:00,38.3,33.0,29.70,NW,315,3.5,3.5,81,0.00,CLR,,0.00,WeatherDisplay:10.37,2013-03-10 13:39:00,
2013-03-10 13:40:00,38.3,33.0,29.69,WNW,283,1.0,9.0,81,0.00,CLR,,0.00,WeatherDisplay:10.37,2013-03-10 13:40:00,
2013-03-10 13:41:00,38.3,33.3,29.69,SE,136,3.5,3.5,82,0.00,CLR,,0.00,WeatherDisplay:10.37,2013-03-10 13:41:00,
2013-03-10 13:42:00,38.2,33.2,29.70,East,84,3.5,3.5,82,0.00,CLR,,0.00,WeatherDisplay:10.37,2013-03-10 13:42:00,
2013-03-10 13:43:00,38.5,33.5,29.69,West,270,3.5,3.5,82,0.00,CLR,,0.00,WeatherDisplay:10.37,2013-03-10 13:43:00,
2013-03-10 13:44:00,38.2,33.2,29.69,NE,38,4.6,4.6,82,0.00,CLR,,0.00,WeatherDisplay:10.37,2013-03-10 13:44:00,
2013-03-10 13:45:00,38.2,33.2,29.70,North,352,5.8,5.8,82,0.00,CLR,,0.00,WeatherDisplay:10.37,2013-03-10 13:45:00,
2013-03-10 13:48:00,38.5,33.5,29.70,North,356,4.6,4.6,82,0.00,CLR,,0.00,WeatherDisplay:10.37,2013-03-10 13:48:00,
2013-03-10 13:50:00,38.0,33.0,29.70,East,93,8.0,8.0,82,0.00,CLR,,0.00,WeatherDisplay:10.37,2013-03-10 13:50:00,
2013-03-10 13:51:00,38.0,33.3,29.70,North,356,8.1,8.1,83,0.00,CLR,,0.00,WeatherDisplay:10.37,2013-03-10 13:51:00,
2013-03-10 13:52:00,37.9,33.2,29.70,North,11,5.0,5.0,83,0.00,CLR,,0.00,WeatherDisplay:10.37,2013-03-10 13:52:00,
2013-03-10 13:53:00,38.3,33.3,29.69,ENE,71,4.0,4.0,82,0.00,CLR,,0.00,WeatherDisplay:10.37,2013-03-10 13:53:00,
2013-03-10 13:54:00,37.9,33.2,29.70,WNW,284,2.3,2.3,83,0.00,CLR,,0.00,WeatherDisplay:10.37,2013-03-10 13:54:00,
2013-03-10 13:58:00,38.1,33.1,29.69,NNW,335,5.8,5.8,82,0.00,CLR,,0.00,WeatherDisplay:10.37,2013-03-10 13:58:00,
2013-03-10 14:03:00,38.0,33.3,29.70,SSW,197,5.8,5.8,83,0.00,CLR,,0.00,WeatherDisplay:10.37,2013-03-10 14:03:00,
2013-03-10 14:08:00,37.9,33.2,29.70,WSW,248,5.8,5.8,83,0.00,CLR,,0.00,WeatherDisplay:10.37,2013-03-10 14:08:00,
2013-03-10 14:09:00,37.5,32.5,29.70,South,169,8.1,8.1,82,0.00,CLR,,0.00,WeatherDisplay:10.37,2013-03-10 14:09:00,
2013-03-10 14:10:00,37.6,32.9,29.70,ESE,108,3.0,8.0,83,0.00,CLR,,0.00,WeatherDisplay:10.37,2013-03-10 14:10:00,
2013-03-10 14:11:00,37.5,32.5,29.70,NE,34,8.1,8.1,82,0.00,CLR,,0.00,WeatherDisplay:10.37,2013-03-10 14:11:00,
2013-03-10 14:12:00,37.5,32.5,29.70,WSW,258,5.0,5.0,82,0.00,CLR,,0.00,WeatherDisplay:10.37,2013-03-10 14:12:00,
2013-03-10 14:13:00,37.7,33.0,29.70,East,94,8.1,8.1,83,0.00,CLR,,0.00,WeatherDisplay:10.37,2013-03-10 14:13:00,
2013-03-10 14:14:00,37.5,32.5,29.70,WNW,300,5.8,5.8,82,0.00,CLR,,0.00,WeatherDisplay:10.37,2013-03-10 14:14:00,
2013-03-10 14:15:00,37.5,32.5,29.70,East,100,2.0,9.0,82,0.00,CLR,,0.00,WeatherDisplay:10.37,2013-03-10 14:15:00,
2013-03-10 14:18:00,37.6,32.9,29.70,SW,235,5.0,5.0,83,0.00,CLR,,0.00,WeatherDisplay:10.37,2013-03-10 14:18:00,
2013-03-10 14:23:00,37.5,32.5,29.70,WNW,291,8.1,8.1,82,0.00,CLR,,0.00,WeatherDisplay:10.37,2013-03-10 14:23:00,
2013-03-10 14:28:00,37.5,32.5,29.70,West,271,8.1,8.1,82,0.00,CLR,,0.00,WeatherDisplay:10.37,2013-03-10 14:28:00,
2013-03-10 14:30:00,37.5,32.5,29.71,ESE,105,2.3,2.3,82,0.00,CLR,,0.00,WeatherDisplay:10.37,2013-03-10 14:30:00,
2013-03-10 14:31:00,37.5,32.5,29.71,SW,215,2.3,2.3,82,0.00,CLR,,0.00,WeatherDisplay:10.37,2013-03-10 14:31:00,
2013-03-10 14:32:00,37.5,32.5,29.71,East,83,8.1,8.1,82,0.00,CLR,,0.00,WeatherDisplay:10.37,2013-03-10 14:32:00,
2013-03-10 14:33:00,37.5,32.8,29.70,West,277,5.0,5.0,83,0.00,CLR,,0.00,WeatherDisplay:10.37,2013-03-10 14:33:00,
2013-03-10 14:34:00,37.5,32.5,29.71,NNE,30,5.8,5.8,82,0.00,CLR,,0.00,WeatherDisplay:10.37,2013-03-10 14:34:00,
2013-03-10 14:35:00,37.5,32.5,29.71,West,259,4.6,4.6,82,0.00,CLR,,0.00,WeatherDisplay:10.37,2013-03-10 14:35:00,
2013-03-10 14:38:00,37.5,32.5,29.71,ESE,102,6.9,6.9,82,0.00,CLR,,0.00,WeatherDisplay:10.37,2013-03-10 14:38:00,
2013-03-10 14:43:00,37.5,32.5,29.71,SSW,205,3.0,3.0,82,0.00,CLR,,0.00,WeatherDisplay:10.37,2013-03-10 14:43:00,
2013-03-10 14:48:00,37.5,32.5,29.71,West,274,3.5,3.5,82,0.00,CLR,,0.00,WeatherDisplay:10.37,2013-03-10 14:48:00,
2013-03-10 14:53:00,37.5,32.8,29.71,SSE,147,10.4,10.4,83,0.00,CLR,,0.00,WeatherDisplay:10.37,2013-03-10 14:53:00,
2013-03-10 14:58:00,37.4,32.7,29.70,West,274,6.9,6.9,83,0.00,CLR,,0.00,WeatherDisplay:10.37,2013-03-10 14:58:00,
2013-03-10 15:03:00,37.3,32.3,29.71,WNW,294,4.0,4.0,82,0.00,CLR,,0.00,WeatherDisplay:10.37,2013-03-10 15:03:00,
2013-03-10 15:08:00,37.3,32.3,29.70,NW,305,6.0,6.0,82,0.00,CLR,,0.00,WeatherDisplay:10.37,2013-03-10 15:08:00,
2013-03-10 15:10:00,37.2,32.5,29.70,SSE,158,2.0,6.0,83,0.00,CLR,,0.00,WeatherDisplay:10.37,2013-03-10 15:10:00,
2013-03-10 15:11:00,37.1,32.4,29.71,ENE,73,4.0,4.0,83,0.00,CLR,,0.00,WeatherDisplay:10.37,2013-03-10 15:11:00,
2013-03-10 15:12:00,37.1,32.4,29.70,ENE,67,3.5,3.5,83,0.00,CLR,,0.00,WeatherDisplay:10.37,2013-03-10 15:12:00,
2013-03-10 15:13:00,37.3,32.3,29.70,SE,136,3.5,3.5,82,0.00,CLR,,0.00,WeatherDisplay:10.37,2013-03-10 15:13:00,
2013-03-10 15:18:00,37.2,32.2,29.70,West,262,5.0,5.0,82,0.00,CLR,,0.00,WeatherDisplay:10.37,2013-03-10 15:18:00,
2013-03-10 15:19:00,36.9,31.9,29.70,West,270,4.6,4.6,82,0.00,CLR,,0.00,WeatherDisplay:10.37,2013-03-10 15:19:00,
2013-03-10 15:20:00,37.0,32.0,29.70,NNW,338,9.2,9.2,82,0.00,CLR,,0.00,WeatherDisplay:10.37,2013-03-10 15:20:00,
2013-03-10 15:21:00,36.9,31.9,29.70,NNE,23,6.9,6.9,82,0.00,CLR,,0.00,WeatherDisplay:10.37,2013-03-10 15:21:00,
2013-03-10 15:22:00,36.9,31.9,29.70,WNW,296,5.0,5.0,82,0.00,CLR,,0.00,WeatherDisplay:10.37,2013-03-10 15:22:00,
2013-03-10 15:23:00,36.9,31.9,29.70,ENE,75,6.9,6.9,82,0.00,CLR,,0.00,WeatherDisplay:10.37,2013-03-10 15:23:00,
2013-03-10 15:24:00,37.1,32.1,29.71,NNE,29,3.5,3.5,82,0.00,CLR,,0.00,WeatherDisplay:10.37,2013-03-10 15:24:00,
2013-03-10 15:29:00,37.0,32.0,29.70,WNW,290,5.8,5.8,82,0.00,CLR,,0.00,WeatherDisplay:10.37,2013-03-10 15:29:00,
2013-03-10 15:30:00,36.9,31.9,29.70,West,262,2.0,9.0,82,0.00,CLR,,0.00,WeatherDisplay:10.37,2013-03-10 15:30:00,
2013-03-10 15:31:00,36.8,31.5,29.70,NNW,347,11.5,11.5,81,0.00,CLR,,0.00,WeatherDisplay:10.37,2013-03-10 15:31:00,
2013-03-10 15:32:00,36.8,31.5,29.70,SE,128,11.5,11.5,81,0.00,CLR,,0.00,WeatherDisplay:10.37,2013-03-10 15:32:00,
2013-03-10 15:33:00,36.8,31.5,29.70,East,91,9.2,9.2,81,0.00,CLR,,0.00,WeatherDisplay:10.37,2013-03-10 15:33:00,
2013-03-10 15:34:00,36.9,31.9,29.70,ESE,105,6.9,6.9,82,0.00,CLR,,0.00,WeatherDisplay:10.37,2013-03-10 15:34:00,
2013-03-10 15:35:00,36.9,31.6,29.70,SSE,150,5.8,5.8,81,0.00,CLR,,0.00,WeatherDisplay:10.37,2013-03-10 15:35:00,
2013-03-10 15:39:00,36.9,31.9,29.70,WNW,287,9.2,9.2,82,0.00,CLR,,0.00,WeatherDisplay:10.37,2013-03-10 15:39:00,
2013-03-10 15:40:00,36.9,31.6,29.70,East,82,4.0,4.0,81,0.00,CLR,,0.00,WeatherDisplay:10.37,2013-03-10 15:40:00,
2013-03-10 15:41:00,36.9,31.9,29.70,ENE,76,3.5,3.5,82,0.00,CLR,,0.00,WeatherDisplay:10.37,2013-03-10 15:41:00,
2013-03-10 15:42:00,36.9,31.9,29.70,ENE,71,3.5,3.5,82,0.00,CLR,,0.00,WeatherDisplay:10.37,2013-03-10 15:42:00,
2013-03-10 15:43:00,36.9,31.9,29.70,East,89,10.4,10.4,82,0.00,CLR,,0.00,WeatherDisplay:10.37,2013-03-10 15:43:00,
2013-03-10 15:44:00,36.8,31.5,29.70,WNW,287,11.5,11.5,81,0.00,CLR,,0.00,WeatherDisplay:10.37,2013-03-10 15:44:00,
2013-03-10 15:49:00,36.9,31.6,29.70,ESE,110,9.2,9.2,81,0.00,CLR,,0.00,WeatherDisplay:10.37,2013-03-10 15:49:00,
2013-03-10 15:54:00,36.9,31.9,29.70,ESE,113,3.5,3.5,82,0.00,CLR,,0.00,WeatherDisplay:10.37,2013-03-10 15:54:00,
2013-03-10 15:59:00,36.9,31.9,29.71,North,11,4.6,4.6,82,0.00,CLR,,0.00,WeatherDisplay:10.37,2013-03-10 15:59:00,
2013-03-10 16:04:00,36.8,32.1,29.71,NW,318,5.0,5.0,83,0.00,CLR,,0.00,WeatherDisplay:10.37,2013-03-10 16:04:00,
2013-03-10 16:09:00,36.6,31.9,29.71,ENE,58,11.5,11.5,83,0.00,CLR,,0.00,WeatherDisplay:10.37,2013-03-10 16:09:00,
2013-03-10 16:10:00,36.3,31.6,29.71,WNW,301,2.0,7.0,83,0.00,CLR,,0.00,WeatherDisplay:10.37,2013-03-10 16:10:00,
2013-03-10 16:11:00,36.3,31.6,29.71,NW,307,4.6,4.6,83,0.00,CLR,,0.00,WeatherDisplay:10.37,2013-03-10 16:11:00,
2013-03-10 16:12:00,36.3,31.6,29.71,SSE,167,7.0,7.0,83,0.00,CLR,,0.00,WeatherDisplay:10.37,2013-03-10 16:12:00,
2013-03-10 16:13:00,36.3,31.6,29.71,WSW,239,6.9,6.9,83,0.00,CLR,,0.00,WeatherDisplay:10.37,2013-03-10 16:13:00,
2013-03-10 16:14:00,36.4,31.7,29.71,NW,325,5.8,5.8,83,0.00,CLR,,0.00,WeatherDisplay:10.37,2013-03-10 16:14:00,
2013-03-10 16:15:00,36.2,31.5,29.71,West,275,3.5,3.5,83,0.00,CLR,,0.00,WeatherDisplay:10.37,2013-03-10 16:15:00,
2013-03-10 16:16:00,36.2,31.5,29.71,West,279,6.9,6.9,83,0.00,CLR,,0.00,WeatherDisplay:10.37,2013-03-10 16:16:00,
2013-03-10 16:19:00,36.4,32.0,29.71,ENE,77,2.0,2.0,84,0.00,CLR,,0.00,WeatherDisplay:10.37,2013-03-10 16:19:00,
2013-03-10 16:24:00,36.3,31.6,29.71,SE,129,4.6,4.6,83,0.00,CLR,,0.00,WeatherDisplay:10.37,2013-03-10 16:24:00,
2013-03-10 16:29:00,36.2,31.5,29.71,West,280,6.9,6.9,83,0.00,CLR,,0.00,WeatherDisplay:10.37,2013-03-10 16:29:00,
2013-03-10 16:34:00,36.1,31.4,29.71,South,187,8.1,8.1,83,0.00,CLR,,0.00,WeatherDisplay:10.37,2013-03-10 16:34:00,
2013-03-10 16:38:00,36.1,31.1,29.71,ESE,110,5.8,5.8,82,0.00,CLR,,0.00,WeatherDisplay:10.37,2013-03-10 16:38:00,
2013-03-10 16:43:00,36.1,31.1,29.71,North,358,8.1,8.1,82,0.00,CLR,,0.00,WeatherDisplay:10.37,2013-03-10 16:43:00,
2013-03-10 16:48:00,36.2,31.2,29.71,WNW,284,3.5,3.5,82,0.00,CLR,,0.00,WeatherDisplay:10.37,2013-03-10 16:48:00,
2013-03-10 16:53:00,36.2,31.2,29.71,East,86,2.3,2.3,82,0.00,CLR,,0.00,WeatherDisplay:10.37,2013-03-10 16:53:00,
2013-03-10 16:58:00,36.2,31.2,29.71,SW,234,2.3,2.3,82,0.00,CLR,,0.00,WeatherDisplay:10.37,2013-03-10 16:58:00,
2013-03-10 17:03:00,36.2,31.2,29.71,NNW,338,8.1,8.1,82,0.00,CLR,,0.00,WeatherDisplay:10.37,2013-03-10 17:03:00,
2013-03-10 17:08:00,36.2,30.9,29.71,South,187,16.1,16.1,81,0.00,CLR,,0.00,WeatherDisplay:10.37,2013-03-10 17:08:00,
2013-03-10 17:13:00,36.1,30.8,29.72,WNW,300,5.8,5.8,81,0.00,CLR,,0.00,WeatherDisplay:10.37,2013-03-10 17:13:00,
2013-03-10 17:18:00,36.1,30.8,29.72,SSW,200,4.0,4.0,81,0.00,CLR,,0.00,WeatherDisplay:10.37,2013-03-10 17:18:00,
2013-03-10 17:23:00,36.0,30.7,29.72,SSW,200,9.2,9.2,81,0.00,CLR,,0.00,WeatherDisplay:10.37,2013-03-10 17:23:00,
2013-03-10 17:28:00,36.1,30.8,29.72,WNW,290,2.3,2.3,81,0.00,CLR,,0.00,WeatherDisplay:10.37,2013-03-10 17:28:00,
2013-03-10 17:33:00,36.1,30.8,29.72,NW,325,6.9,6.9,81,0.00,CLR,,0.00,WeatherDisplay:10.37,2013-03-10 17:33:00,
2013-03-10 17:38:00,36.0,30.4,29.72,East,81,6.9,6.9,80,0.00,CLR,,0.00,WeatherDisplay:10.37,2013-03-10 17:38:00,
2013-03-10 17:43:00,36.0,30.7,29.72,NNW,328,2.3,2.3,81,0.00,CLR,,0.00,WeatherDisplay:10.37,2013-03-10 17:43:00,
2013-03-10 17:48:00,36.0,30.7,29.72,ESE,110,2.3,2.3,81,0.00,CLR,,0.00,WeatherDisplay:10.37,2013-03-10 17:48:00,
2013-03-10 17:53:00,36.0,30.7,29.72,NE,36,3.5,3.5,81,0.00,CLR,,0.00,WeatherDisplay:10.37,2013-03-10 17:53:00,
2013-03-10 17:58:00,36.0,30.4,29.72,SSE,162,3.5,3.5,80,0.00,CLR,,0.00,WeatherDisplay:10.37,2013-03-10 17:58:00,
2013-03-10 18:03:00,35.9,30.3,29.72,NNW,337,10.4,10.4,80,0.00,CLR,,0.00,WeatherDisplay:10.37,2013-03-10 18:03:00,
2013-03-10 18:08:00,35.9,30.6,29.72,East,95,5.8,5.8,81,0.00,CLR,,0.00,WeatherDisplay:10.37,2013-03-10 18:08:00,
2013-03-10 18:13:00,35.8,30.5,29.72,NW,309,5.8,5.8,81,0.00,CLR,,0.00,WeatherDisplay:10.37,2013-03-10 18:13:00,
2013-03-10 18:18:00,35.7,30.4,29.72,NNW,333,5.0,5.0,81,0.00,CLR,,0.00,WeatherDisplay:10.37,2013-03-10 18:18:00,
2013-03-10 18:23:00,35.6,30.3,29.72,NW,318,8.1,8.1,81,0.00,CLR,,0.00,WeatherDisplay:10.37,2013-03-10 18:23:00,
2013-03-10 18:29:00,35.5,30.2,29.72,SSE,148,5.8,5.8,81,0.00,CLR,,0.00,WeatherDisplay:10.37,2013-03-10 18:29:00,
2013-03-10 18:34:00,35.5,30.2,29.72,East,87,4.6,4.6,81,0.00,CLR,,0.00,WeatherDisplay:10.37,2013-03-10 18:34:00,
2013-03-10 18:39:00,35.4,30.1,29.72,North,353,3.5,3.5,81,0.00,CLR,,0.00,WeatherDisplay:10.37,2013-03-10 18:39:00,
2013-03-10 18:44:00,35.4,30.1,29.72,NW,323,11.5,11.5,81,0.00,CLR,,0.00,WeatherDisplay:10.37,2013-03-10 18:44:00,
2013-03-10 18:49:00,35.4,30.1,29.72,NNE,33,6.0,6.0,81,0.00,CLR,,0.00,WeatherDisplay:10.37,2013-03-10 18:49:00,
2013-03-10 18:54:00,35.4,30.5,29.72,ESE,118,5.8,5.8,82,0.00,CLR,,0.00,WeatherDisplay:10.37,2013-03-10 18:54:00,
2013-03-10 18:59:00,35.3,30.4,29.73,ENE,72,3.5,3.5,82,0.00,CLR,,0.00,WeatherDisplay:10.37,2013-03-10 18:59:00,
2013-03-10 19:04:00,35.3,30.1,29.72,ENE,59,3.5,3.5,81,0.00,CLR,,0.00,WeatherDisplay:10.37,2013-03-10 19:04:00,
2013-03-10 19:09:00,35.3,30.1,29.73,NW,322,4.6,4.6,81,0.00,CLR,,0.00,WeatherDisplay:10.37,2013-03-10 19:09:00,
2013-03-10 19:14:00,35.3,30.1,29.73,NE,52,5.0,5.0,81,0.00,CLR,,0.00,WeatherDisplay:10.37,2013-03-10 19:14:00,
2013-03-10 19:19:00,35.3,30.4,29.73,SW,228,3.5,3.5,82,0.00,CLR,,0.00,WeatherDisplay:10.37,2013-03-10 19:19:00,
2013-03-10 19:24:00,35.2,30.0,29.72,ESE,108,4.6,4.6,81,0.00,CLR,,0.00,WeatherDisplay:10.37,2013-03-10 19:24:00,
2013-03-10 19:29:00,35.1,29.9,29.73,NE,37,3.5,3.5,81,0.00,CLR,,0.00,WeatherDisplay:10.37,2013-03-10 19:29:00,
2013-03-10 19:34:00,35.0,29.8,29.73,West,266,6.9,6.9,81,0.00,CLR,,0.00,WeatherDisplay:10.37,2013-03-10 19:34:00,
2013-03-10 19:39:00,34.9,29.7,29.73,East,100,3.5,3.5,81,0.00,CLR,,0.00,WeatherDisplay:10.37,2013-03-10 19:39:00,
2013-03-10 19:44:00,34.9,29.7,29.73,NNW,337,5.0,5.0,81,0.00,CLR,,0.00,WeatherDisplay:10.37,2013-03-10 19:44:00,
2013-03-10 19:49:00,34.8,29.6,29.72,SSW,202,5.8,5.8,81,0.00,CLR,,0.00,WeatherDisplay:10.37,2013-03-10 19:49:00,
2013-03-10 19:54:00,34.8,29.6,29.73,SW,235,4.6,4.6,81,0.00,CLR,,0.00,WeatherDisplay:10.37,2013-03-10 19:54:00,
2013-03-10 19:59:00,34.8,29.6,29.73,West,278,5.0,5.0,81,0.00,CLR,,0.00,WeatherDisplay:10.37,2013-03-10 19:59:00,
2013-03-10 20:04:00,34.8,29.6,29.73,NW,304,6.9,6.9,81,0.00,CLR,,0.00,WeatherDisplay:10.37,2013-03-10 20:04:00,
2013-03-10 20:09:00,34.7,29.5,29.73,SE,140,13.8,13.8,81,0.00,CLR,,0.00,WeatherDisplay:10.37,2013-03-10 20:09:00,
2013-03-10 20:14:00,34.7,29.5,29.73,SE,135,3.5,3.5,81,0.00,CLR,,0.00,WeatherDisplay:10.37,2013-03-10 20:14:00,
2013-03-10 20:19:00,34.7,29.5,29.73,ESE,104,4.0,4.0,81,0.00,CLR,,0.00,WeatherDisplay:10.37,2013-03-10 20:19:00,
2013-03-10 20:24:00,34.6,29.1,29.73,SSW,207,8.1,8.1,80,0.00,CLR,,0.00,WeatherDisplay:10.37,2013-03-10 20:24:00,
2013-03-10 20:29:00,34.6,29.4,29.73,WNW,291,5.8,5.8,81,0.00,CLR,,0.00,WeatherDisplay:10.37,2013-03-10 20:29:00,
2013-03-10 20:34:00,34.6,29.1,29.73,NNW,340,3.5,3.5,80,0.00,CLR,,0.00,WeatherDisplay:10.37,2013-03-10 20:34:00,
2013-03-10 20:39:00,34.5,29.0,29.73,East,84,4.0,4.0,80,0.00,CLR,,0.00,WeatherDisplay:10.37,2013-03-10 20:39:00,
2013-03-10 20:44:00,34.5,29.0,29.73,NNE,16,3.5,3.5,80,0.00,CLR,,0.00,WeatherDisplay:10.37,2013-03-10 20:44:00,
2013-03-10 20:49:00,34.5,29.0,29.73,NW,304,10.4,10.4,80,0.00,CLR,,0.00,WeatherDisplay:10.37,2013-03-10 20:49:00,
2013-03-10 20:54:00,34.5,29.0,29.73,ESE,105,4.6,4.6,80,0.00,CLR,,0.00,WeatherDisplay:10.37,2013-03-10 20:54:00,
2013-03-10 20:59:00,34.5,29.0,29.73,NW,311,10.4,10.4,80,0.00,CLR,,0.00,WeatherDisplay:10.37,2013-03-10 20:59:00,
2013-03-10 21:04:00,34.5,29.0,29.73,WNW,291,3.0,3.0,80,0.00,CLR,,0.00,WeatherDisplay:10.37,2013-03-10 21:04:00,
2013-03-10 21:09:00,34.5,29.0,29.74,NE,38,3.5,3.5,80,0.00,CLR,,0.00,WeatherDisplay:10.37,2013-03-10 21:09:00,
2013-03-10 21:14:00,34.5,29.0,29.74,West,281,4.6,4.6,80,0.00,CLR,,0.00,WeatherDisplay:10.37,2013-03-10 21:14:00,
2013-03-10 21:19:00,34.5,29.3,29.74,West,264,3.5,3.5,81,0.00,CLR,,0.00,WeatherDisplay:10.37,2013-03-10 21:19:00,
2013-03-10 21:24:00,34.4,28.9,29.74,SSE,159,4.6,4.6,80,0.00,CLR,,0.00,WeatherDisplay:10.37,2013-03-10 21:24:00,
2013-03-10 21:29:00,34.4,28.9,29.74,West,271,9.2,9.2,80,0.00,CLR,,0.00,WeatherDisplay:10.37,2013-03-10 21:29:00,
2013-03-10 21:34:00,34.3,29.1,29.74,South,187,6.9,6.9,81,0.00,CLR,,0.00,WeatherDisplay:10.37,2013-03-10 21:34:00,
2013-03-10 21:39:00,34.3,29.1,29.74,ENE,61,4.0,4.0,81,0.00,CLR,,0.00,WeatherDisplay:10.37,2013-03-10 21:39:00,
2013-03-10 21:44:00,34.3,29.1,29.74,NE,56,6.9,6.9,81,0.00,CLR,,0.00,WeatherDisplay:10.37,2013-03-10 21:44:00,
2013-03-10 21:49:00,34.2,29.3,29.74,NNW,333,3.5,3.5,82,0.00,CLR,,0.00,WeatherDisplay:10.37,2013-03-10 21:49:00,
2013-03-10 21:54:00,34.2,29.3,29.74,NE,40,3.5,3.5,82,0.00,CLR,,0.00,WeatherDisplay:10.37,2013-03-10 21:54:00,
2013-03-10 21:59:00,34.2,29.3,29.74,East,98,3.5,3.5,82,0.00,CLR,,0.00,WeatherDisplay:10.37,2013-03-10 21:59:00,
2013-03-10 22:04:00,34.2,29.3,29.74,SE,125,5.8,5.8,82,0.00,CLR,,0.00,WeatherDisplay:10.37,2013-03-10 22:04:00,
2013-03-10 22:09:00,34.2,29.3,29.74,ESE,122,5.8,5.8,82,0.00,CLR,,0.00,WeatherDisplay:10.37,2013-03-10 22:09:00,
2013-03-10 22:14:00,34.2,29.6,29.74,WNW,284,15.0,15.0,83,0.00,CLR,,0.00,WeatherDisplay:10.37,2013-03-10 22:14:00,
2013-03-10 22:19:00,34.2,29.6,29.73,NNW,333,5.0,5.0,83,0.00,CLR,,0.00,WeatherDisplay:10.37,2013-03-10 22:19:00,
2013-03-10 22:24:00,34.2,29.6,29.73,North,11,4.6,4.6,83,0.00,CLR,,0.00,WeatherDisplay:10.37,2013-03-10 22:24:00,
2013-03-10 22:29:00,34.2,29.6,29.73,NNW,330,5.8,5.8,83,0.00,CLR,,0.00,WeatherDisplay:10.37,2013-03-10 22:29:00,
2013-03-10 22:34:00,34.2,29.6,29.73,NNE,27,3.5,3.5,83,0.00,CLR,,0.00,WeatherDisplay:10.37,2013-03-10 22:34:00,
2013-03-10 22:39:00,34.2,29.3,29.73,ENE,63,8.1,8.1,82,0.00,CLR,,0.00,WeatherDisplay:10.37,2013-03-10 22:39:00,
2013-03-10 22:44:00,34.2,29.3,29.73,NW,307,6.9,6.9,82,0.00,CLR,,0.00,WeatherDisplay:10.37,2013-03-10 22:44:00,
2013-03-10 22:49:00,34.2,29.3,29.73,WNW,300,3.5,3.5,82,0.00,CLR,,0.00,WeatherDisplay:10.37,2013-03-10 22:49:00,
2013-03-10 22:54:00,34.2,29.3,29.73,NW,307,4.6,4.6,82,0.00,CLR,,0.00,WeatherDisplay:10.37,2013-03-10 22:54:00,
2013-03-10 22:59:00,34.2,29.3,29.73,NW,325,3.5,3.5,82,0.00,CLR,,0.00,WeatherDisplay:10.37,2013-03-10 22:59:00,
2013-03-10 23:04:00,34.2,29.3,29.73,East,98,5.8,5.8,82,0.00,CLR,,0.00,WeatherDisplay:10.37,2013-03-10 23:04:00,
2013-03-10 23:09:00,34.1,29.2,29.73,East,98,8.1,8.1,82,0.00,CLR,,0.00,WeatherDisplay:10.37,2013-03-10 23:09:00,
2013-03-10 23:14:00,34.1,29.5,29.73,WNW,300,4.0,4.0,83,0.00,CLR,,0.00,WeatherDisplay:10.37,2013-03-10 23:14:00,
2013-03-10 23:19:00,34.0,29.4,29.73,WNW,287,4.6,4.6,83,0.00,CLR,,0.00,WeatherDisplay:10.37,2013-03-10 23:19:00,
2013-03-10 23:24:00,34.0,29.4,29.73,East,91,8.0,8.0,83,0.00,CLR,,0.00,WeatherDisplay:10.37,2013-03-10 23:24:00,
2013-03-10 23:29:00,34.0,29.4,29.73,West,281,6.0,6.0,83,0.00,CLR,,0.00,WeatherDisplay:10.37,2013-03-10 23:29:00,
2013-03-10 23:34:00,34.0,29.1,29.73,SE,138,6.9,6.9,82,0.00,CLR,,0.00,WeatherDisplay:10.37,2013-03-10 23:34:00,
2013-03-10 23:39:00,34.0,29.4,29.73,NW,315,2.3,2.3,83,0.00,CLR,,0.00,WeatherDisplay:10.37,2013-03-10 23:39:00,
2013-03-10 23:44:00,34.1,29.5,29.73,SSE,162,4.6,4.6,83,0.00,CLR,,0.00,WeatherDisplay:10.37,2013-03-10 23:44:00,
2013-03-10 23:49:00,34.0,29.1,29.73,ESE,115,5.8,5.8,82,0.00,CLR,,0.00,WeatherDisplay:10.37,2013-03-10 23:49:00,
2013-03-10 23:54:00,34.1,29.5,29.73,NNW,335,3.5,3.5,83,0.00,CLR,,0.00,WeatherDisplay:10.37,2013-03-10 23:54:00,
2013-03-10 23:59:00,34.0,29.4,29.73,ESE,108,4.6,4.6,83,0.00,CLR,,0.00,WeatherDisplay:10.37,2013-03-10 23:59:00,